<?xml version='1.0' encoding='UTF-8'?><gpx version="1.1" creator="JPX - https://github.com/jenetics/jpx" xmlns="http://www.topografix.com/GPX/1/1"><trk><trkseg><trkpt lat="36.71385466968274" lon="15.010450365842571"><ele>4.0</ele><time>2026-04-18T15:26:23Z</time></trkpt><trkpt lat="36.71382578460392" lon="15.010544794900774"><ele>4.0</ele><time>2026-04-18T15:26:24Z</time></trkpt><trkpt lat="36.713843947375935" lon="15.010671596704098"><ele>4.0</ele><time>2026-04-18T15:26:25Z</time></trkpt><trkpt lat="36.71386235351858" lon="15.010800097627351"><ele>4.0</ele><time>2026-04-18T15:26:26Z</time></trkpt><trkpt lat="36.71389144177931" lon="15.010977057477275"><ele>4.0</ele><time>2026-04-18T15:26:27Z</time></trkpt><trkpt lat="36.713916104394166" lon="15.011126885626846"><ele>3.5</ele><time>2026-04-18T15:26:28Z</time></trkpt><trkpt lat="36.71394145639379" lon="15.011280901884863"><ele>3.0</ele><time>2026-04-18T15:26:29Z</time></trkpt><trkpt lat="36.71396356976402" lon="15.011425135577946"><ele>2.5</ele><time>2026-04-18T15:26:30Z</time></trkpt><trkpt lat="36.71398084999415" lon="15.011544672323803"><ele>2.0</ele><time>2026-04-18T15:26:31Z</time></trkpt><trkpt lat="36.71400193881197" lon="15.01169055517375"><ele>1.8</ele><time>2026-04-18T15:26:33Z</time></trkpt><trkpt lat="36.71402544274545" lon="15.011846437626444"><ele>1.6</ele><time>2026-04-18T15:26:35Z</time></trkpt><trkpt lat="36.71404215149863" lon="15.011924696363643"><ele>1.4000000000000001</ele><time>2026-04-18T15:26:36Z</time></trkpt><trkpt lat="36.714058021568015" lon="15.012026474025033"><ele>1.2000000000000002</ele><time>2026-04-18T15:26:37Z</time></trkpt><trkpt lat="36.71407432706679" lon="15.01214001038459"><ele>1.0</ele><time>2026-04-18T15:26:38Z</time></trkpt><trkpt lat="36.71409385026979" lon="15.012264531369887"><ele>1.0</ele><time>2026-04-18T15:26:39Z</time></trkpt><trkpt lat="36.714116421953065" lon="15.012400055092208"><ele>1.0</ele><time>2026-04-18T15:26:40Z</time></trkpt><trkpt lat="36.71413528160098" lon="15.012545983462532"><ele>1.0</ele><time>2026-04-18T15:26:41Z</time></trkpt><trkpt lat="36.71415732419322" lon="15.012696749495174"><ele>1.0</ele><time>2026-04-18T15:26:42Z</time></trkpt><trkpt lat="36.71418064199609" lon="15.012855111361963"><ele>1.0</ele><time>2026-04-18T15:26:43Z</time></trkpt><trkpt lat="36.71420448894013" lon="15.01301207865826"><ele>1.0</ele><time>2026-04-18T15:26:44Z</time></trkpt><trkpt lat="36.71422882532171" lon="15.013170650606558"><ele>1.0</ele><time>2026-04-18T15:26:45Z</time></trkpt><trkpt lat="36.71424840143559" lon="15.013313522613723"><ele>1.0</ele><time>2026-04-18T15:26:46Z</time></trkpt><trkpt lat="36.714279867637636" lon="15.013488763468741"><ele>1.0</ele><time>2026-04-18T15:26:47Z</time></trkpt><trkpt lat="36.71430286584751" lon="15.013652691261832"><ele>1.0</ele><time>2026-04-18T15:26:48Z</time></trkpt><trkpt lat="36.7143241460373" lon="15.013810987385448"><ele>1.0</ele><time>2026-04-18T15:26:49Z</time></trkpt><trkpt lat="36.71434775683348" lon="15.013973686826187"><ele>1.0</ele><time>2026-04-18T15:26:50Z</time></trkpt><trkpt lat="36.71436859494017" lon="15.014136865236939"><ele>1.0</ele><time>2026-04-18T15:26:51Z</time></trkpt><trkpt lat="36.714391299258104" lon="15.01429389880233"><ele>1.0</ele><time>2026-04-18T15:26:52Z</time></trkpt><trkpt lat="36.71441597653008" lon="15.014458256529872"><ele>1.0</ele><time>2026-04-18T15:26:53Z</time></trkpt><trkpt lat="36.714439512733655" lon="15.014623457236775"><ele>1.0</ele><time>2026-04-18T15:26:54Z</time></trkpt><trkpt lat="36.7144622318255" lon="15.014791964360166"><ele>1.25</ele><time>2026-04-18T15:26:55Z</time></trkpt><trkpt lat="36.71448947667625" lon="15.014949128926458"><ele>1.5</ele><time>2026-04-18T15:26:56Z</time></trkpt><trkpt lat="36.71451338891168" lon="15.015107584283726"><ele>1.75</ele><time>2026-04-18T15:26:57Z</time></trkpt><trkpt lat="36.71453704414841" lon="15.015271340624667"><ele>2.0</ele><time>2026-04-18T15:26:57.999Z</time></trkpt><trkpt lat="36.714560288751294" lon="15.015422463499343"><ele>2.0</ele><time>2026-04-18T15:26:58.999Z</time></trkpt><trkpt lat="36.71458048689394" lon="15.015574603307783"><ele>2.0</ele><time>2026-04-18T15:26:59.999Z</time></trkpt><trkpt lat="36.7146011595651" lon="15.015723829987015"><ele>2.0</ele><time>2026-04-18T15:27:00.999Z</time></trkpt><trkpt lat="36.71462271327621" lon="15.015872889136315"><ele>2.0</ele><time>2026-04-18T15:27:01.999Z</time></trkpt><trkpt lat="36.714641133930954" lon="15.016027050906855"><ele>2.0</ele><time>2026-04-18T15:27:02.999Z</time></trkpt><trkpt lat="36.71466088082617" lon="15.016180077509162"><ele>2.0</ele><time>2026-04-18T15:27:03.999Z</time></trkpt><trkpt lat="36.71468581172783" lon="15.016335781822352"><ele>2.0</ele><time>2026-04-18T15:27:04.999Z</time></trkpt><trkpt lat="36.71471028837834" lon="15.016490982238208"><ele>2.0</ele><time>2026-04-18T15:27:05.999Z</time></trkpt><trkpt lat="36.714722708864485" lon="15.016648040952457"><ele>2.0</ele><time>2026-04-18T15:27:06.999Z</time></trkpt><trkpt lat="36.71475720043131" lon="15.016812095646744"><ele>2.0</ele><time>2026-04-18T15:27:07.999Z</time></trkpt><trkpt lat="36.71477879665219" lon="15.016963451673922"><ele>2.0</ele><time>2026-04-18T15:27:08.999Z</time></trkpt><trkpt lat="36.71480435044363" lon="15.01711796524532"><ele>2.0</ele><time>2026-04-18T15:27:09.999Z</time></trkpt><trkpt lat="36.71482892783087" lon="15.017261840003085"><ele>1.9999999999999998</ele><time>2026-04-18T15:27:10.999Z</time></trkpt><trkpt lat="36.71484909074101" lon="15.01738350972633"><ele>2.0</ele><time>2026-04-18T15:27:11.999Z</time></trkpt><trkpt lat="36.71486534215202" lon="15.0174938854982"><ele>2.0</ele><time>2026-04-18T15:27:12.999Z</time></trkpt><trkpt lat="36.71487775225237" lon="15.017594621760628"><ele>2.0</ele><time>2026-04-18T15:27:13.999Z</time></trkpt><trkpt lat="36.714885832979036" lon="15.01767685041099"><ele>1.9999999999999998</ele><time>2026-04-18T15:27:14.999Z</time></trkpt><trkpt lat="36.71488427989695" lon="15.017814803329966"><ele>2.0</ele><time>2026-04-18T15:27:16.999Z</time></trkpt><trkpt lat="36.7148881581038" lon="15.017898337165116"><ele>1.9999999999999998</ele><time>2026-04-18T15:27:18.999Z</time></trkpt><trkpt lat="36.71485248975127" lon="15.017974021609994"><ele>2.0</ele><time>2026-04-18T15:27:22.999Z</time></trkpt><trkpt lat="36.71486347681389" lon="15.018053610956567"><ele>2.0</ele><time>2026-04-18T15:33:52.999Z</time></trkpt><trkpt lat="36.7148054458171" lon="15.018147354161524"><ele>2.0</ele><time>2026-04-18T15:36:26.999Z</time></trkpt><trkpt lat="36.71476935586185" lon="15.018227574503038"><ele>1.9999999999999998</ele><time>2026-04-18T15:36:27.999Z</time></trkpt><trkpt lat="36.714713683737614" lon="15.018315376999217"><ele>2.0</ele><time>2026-04-18T15:36:28.999Z</time></trkpt><trkpt lat="36.71463693382034" lon="15.018401322951707"><ele>2.25</ele><time>2026-04-18T15:36:29.999Z</time></trkpt><trkpt lat="36.71452053575343" lon="15.01846688393288"><ele>2.5</ele><time>2026-04-18T15:36:30.999Z</time></trkpt><trkpt lat="36.71440789524406" lon="15.0185606596772"><ele>2.75</ele><time>2026-04-18T15:36:31.999Z</time></trkpt><trkpt lat="36.714285753860395" lon="15.01866299404039"><ele>3.0</ele><time>2026-04-18T15:36:32.999Z</time></trkpt><trkpt lat="36.71415627091522" lon="15.01877463457111"><ele>3.0</ele><time>2026-04-18T15:36:33.999Z</time></trkpt><trkpt lat="36.71402338178675" lon="15.018890549796794"><ele>3.0</ele><time>2026-04-18T15:36:34.999Z</time></trkpt><trkpt lat="36.713910409014375" lon="15.019013521134541"><ele>3.0</ele><time>2026-04-18T15:36:35.999Z</time></trkpt><trkpt lat="36.71378378128365" lon="15.019117971373513"><ele>3.0</ele><time>2026-04-18T15:36:36.999Z</time></trkpt><trkpt lat="36.71367015645707" lon="15.019220221966162"><ele>3.0</ele><time>2026-04-18T15:36:38Z</time></trkpt><trkpt lat="36.713526309887314" lon="15.019324130624932"><ele>3.0</ele><time>2026-04-18T15:36:39Z</time></trkpt><trkpt lat="36.7133684329373" lon="15.019461842012173"><ele>2.6666666666666665</ele><time>2026-04-18T15:36:40Z</time></trkpt><trkpt lat="36.713214221097545" lon="15.019616709080665"><ele>2.333333333333333</ele><time>2026-04-18T15:36:41Z</time></trkpt><trkpt lat="36.713041710491446" lon="15.019733846927382"><ele>2.0</ele><time>2026-04-18T15:36:42Z</time></trkpt><trkpt lat="36.7129091855185" lon="15.019852304713943"><ele>2.0</ele><time>2026-04-18T15:36:43Z</time></trkpt><trkpt lat="36.71278208212844" lon="15.01996079144646"><ele>2.0</ele><time>2026-04-18T15:36:44Z</time></trkpt><trkpt lat="36.71268146525217" lon="15.02007479284161"><ele>2.0</ele><time>2026-04-18T15:36:45Z</time></trkpt><trkpt lat="36.71257076594347" lon="15.020172340851252"><ele>2.0</ele><time>2026-04-18T15:36:46Z</time></trkpt><trkpt lat="36.712460910868785" lon="15.020265438746941"><ele>1.75</ele><time>2026-04-18T15:36:47Z</time></trkpt><trkpt lat="36.71234939725102" lon="15.020361525364263"><ele>1.5</ele><time>2026-04-18T15:36:48Z</time></trkpt><trkpt lat="36.712228822532744" lon="15.020459508997194"><ele>1.25</ele><time>2026-04-18T15:36:49Z</time></trkpt><trkpt lat="36.71209381855991" lon="15.020576828087687"><ele>1.0</ele><time>2026-04-18T15:36:50Z</time></trkpt><trkpt lat="36.71195968580465" lon="15.02067102766371"><ele>1.25</ele><time>2026-04-18T15:36:51Z</time></trkpt><trkpt lat="36.711850484833505" lon="15.020794819393625"><ele>1.5</ele><time>2026-04-18T15:36:52Z</time></trkpt><trkpt lat="36.7117496921517" lon="15.020871099353913"><ele>1.75</ele><time>2026-04-18T15:36:53Z</time></trkpt><trkpt lat="36.71165857949858" lon="15.020954961455695"><ele>2.0</ele><time>2026-04-18T15:36:54Z</time></trkpt><trkpt lat="36.711564232579484" lon="15.021022230717382"><ele>2.4000000000000004</ele><time>2026-04-18T15:36:55Z</time></trkpt><trkpt lat="36.711472550998984" lon="15.021060891228068"><ele>2.8000000000000003</ele><time>2026-04-18T15:36:56Z</time></trkpt><trkpt lat="36.71141293902201" lon="15.021134341737367"><ele>3.2</ele><time>2026-04-18T15:36:57Z</time></trkpt><trkpt lat="36.711359506368815" lon="15.021185004313308"><ele>3.6</ele><time>2026-04-18T15:36:58Z</time></trkpt><trkpt lat="36.71122524192924" lon="15.021090041075011"><ele>4.0</ele><time>2026-04-18T15:36:59Z</time></trkpt><trkpt lat="36.711115155505695" lon="15.021076140135545"><ele>3.333333333333333</ele><time>2026-04-18T15:37:00Z</time></trkpt><trkpt lat="36.71097987332049" lon="15.021050356559192"><ele>2.6666666666666665</ele><time>2026-04-18T15:37:01Z</time></trkpt><trkpt lat="36.71081730835427" lon="15.020982406566862"><ele>2.0</ele><time>2026-04-18T15:37:02Z</time></trkpt><trkpt lat="36.71061931531081" lon="15.02092736363357"><ele>2.0</ele><time>2026-04-18T15:37:03Z</time></trkpt><trkpt lat="36.710401526281665" lon="15.020850489661415"><ele>2.0</ele><time>2026-04-18T15:37:04Z</time></trkpt><trkpt lat="36.7101696516792" lon="15.020761388577679"><ele>2.5</ele><time>2026-04-18T15:37:05Z</time></trkpt><trkpt lat="36.709929276501796" lon="15.020672602417086"><ele>3.0</ele><time>2026-04-18T15:37:06Z</time></trkpt><trkpt lat="36.709682097979545" lon="15.020576072737795"><ele>3.0</ele><time>2026-04-18T15:37:07Z</time></trkpt><trkpt lat="36.70946924931686" lon="15.020520026984133"><ele>3.0</ele><time>2026-04-18T15:37:08Z</time></trkpt><trkpt lat="36.70931047527491" lon="15.020449170208492"><ele>3.0</ele><time>2026-04-18T15:37:09Z</time></trkpt><trkpt lat="36.70915931876633" lon="15.020387750575324"><ele>3.0</ele><time>2026-04-18T15:37:10Z</time></trkpt><trkpt lat="36.708893769100115" lon="15.02029198256642"><ele>3.0</ele><time>2026-04-18T15:37:11Z</time></trkpt><trkpt lat="36.70874671799311" lon="15.020225902595113"><ele>3.0</ele><time>2026-04-18T15:37:12Z</time></trkpt><trkpt lat="36.70861017657362" lon="15.020171556811848"><ele>2.6666666666666665</ele><time>2026-04-18T15:37:13Z</time></trkpt><trkpt lat="36.70845487237553" lon="15.020118961479943"><ele>2.333333333333333</ele><time>2026-04-18T15:37:14Z</time></trkpt><trkpt lat="36.70829711873646" lon="15.020066782007948"><ele>2.0</ele><time>2026-04-18T15:37:15Z</time></trkpt><trkpt lat="36.7081739212011" lon="15.0199990297252"><ele>2.0</ele><time>2026-04-18T15:37:16Z</time></trkpt><trkpt lat="36.70807973126474" lon="15.019877485099778"><ele>2.0</ele><time>2026-04-18T15:37:17Z</time></trkpt><trkpt lat="36.707982904822146" lon="15.019764415854995"><ele>2.0</ele><time>2026-04-18T15:37:18Z</time></trkpt><trkpt lat="36.70789219260512" lon="15.019648708552047"><ele>2.0</ele><time>2026-04-18T15:37:19Z</time></trkpt><trkpt lat="36.70780465252082" lon="15.019526691691732"><ele>2.0</ele><time>2026-04-18T15:37:20Z</time></trkpt><trkpt lat="36.70771984441945" lon="15.019396579806983"><ele>2.0</ele><time>2026-04-18T15:37:21Z</time></trkpt><trkpt lat="36.707666555170626" lon="15.01925160398488"><ele>2.0</ele><time>2026-04-18T15:37:22Z</time></trkpt><trkpt lat="36.70761797852363" lon="15.019094899625973"><ele>2.0</ele><time>2026-04-18T15:37:23Z</time></trkpt><trkpt lat="36.70757376046217" lon="15.018953099800289"><ele>2.0</ele><time>2026-04-18T15:37:24Z</time></trkpt><trkpt lat="36.70751834947949" lon="15.018835530790462"><ele>2.0</ele><time>2026-04-18T15:37:25Z</time></trkpt><trkpt lat="36.70748597794936" lon="15.018741155197837"><ele>2.0</ele><time>2026-04-18T15:37:26Z</time></trkpt><trkpt lat="36.70747711851705" lon="15.01866271185827"><ele>2.0</ele><time>2026-04-18T15:37:28Z</time></trkpt><trkpt lat="36.70731466571817" lon="15.01874184772511"><ele>2.0</ele><time>2026-04-18T15:37:29Z</time></trkpt><trkpt lat="36.70719783673837" lon="15.01880645978601"><ele>2.0</ele><time>2026-04-18T15:37:30Z</time></trkpt><trkpt lat="36.70704442223874" lon="15.018880896365287"><ele>2.0</ele><time>2026-04-18T15:37:30.999Z</time></trkpt><trkpt lat="36.70688702987688" lon="15.018942651999298"><ele>2.0</ele><time>2026-04-18T15:37:31.999Z</time></trkpt><trkpt lat="36.70673556782844" lon="15.018988438307"><ele>2.0</ele><time>2026-04-18T15:37:32.999Z</time></trkpt><trkpt lat="36.70659143841101" lon="15.019041103911594"><ele>2.0</ele><time>2026-04-18T15:37:33.999Z</time></trkpt><trkpt lat="36.706451904232225" lon="15.019086364486153"><ele>2.0</ele><time>2026-04-18T15:37:34.999Z</time></trkpt><trkpt lat="36.706314463155955" lon="15.019134812174809"><ele>2.0</ele><time>2026-04-18T15:37:35.999Z</time></trkpt><trkpt lat="36.706194439788646" lon="15.019169602434474"><ele>2.0</ele><time>2026-04-18T15:37:36.999Z</time></trkpt><trkpt lat="36.70608150299699" lon="15.019195215055735"><ele>2.0</ele><time>2026-04-18T15:37:37.999Z</time></trkpt><trkpt lat="36.70596965597033" lon="15.019199647627243"><ele>2.0</ele><time>2026-04-18T15:37:38.999Z</time></trkpt><trkpt lat="36.70584844646933" lon="15.019142997677193"><ele>2.0</ele><time>2026-04-18T15:37:39.999Z</time></trkpt><trkpt lat="36.705714320937005" lon="15.019101106844774"><ele>2.333333333333333</ele><time>2026-04-18T15:37:40.999Z</time></trkpt><trkpt lat="36.7055741884108" lon="15.019056338625894"><ele>2.6666666666666665</ele><time>2026-04-18T15:37:41.999Z</time></trkpt><trkpt lat="36.70542594559212" lon="15.019010940081252"><ele>3.0</ele><time>2026-04-18T15:37:42.999Z</time></trkpt><trkpt lat="36.705271374577244" lon="15.01897726155824"><ele>2.6666666666666665</ele><time>2026-04-18T15:37:43.999Z</time></trkpt><trkpt lat="36.70511396897" lon="15.01892485161454"><ele>2.333333333333333</ele><time>2026-04-18T15:37:44.999Z</time></trkpt><trkpt lat="36.70496153525547" lon="15.018878067950164"><ele>2.0</ele><time>2026-04-18T15:37:45.999Z</time></trkpt><trkpt lat="36.70479323745184" lon="15.018824604258178"><ele>2.0</ele><time>2026-04-18T15:37:46.999Z</time></trkpt><trkpt lat="36.70463456725227" lon="15.018770128500675"><ele>2.0</ele><time>2026-04-18T15:37:47.999Z</time></trkpt><trkpt lat="36.704488433824395" lon="15.018714097906237"><ele>2.0</ele><time>2026-04-18T15:37:48.999Z</time></trkpt><trkpt lat="36.7043372463635" lon="15.018667623418068"><ele>2.0</ele><time>2026-04-18T15:37:49.999Z</time></trkpt><trkpt lat="36.704176004974485" lon="15.018612676936172"><ele>2.0</ele><time>2026-04-18T15:37:50.999Z</time></trkpt><trkpt lat="36.70403017926112" lon="15.018559556587935"><ele>2.0</ele><time>2026-04-18T15:37:51.999Z</time></trkpt><trkpt lat="36.70387272547023" lon="15.018502939486764"><ele>2.0</ele><time>2026-04-18T15:37:52.999Z</time></trkpt><trkpt lat="36.70371574129199" lon="15.01845142666388"><ele>2.0</ele><time>2026-04-18T15:37:53.999Z</time></trkpt><trkpt lat="36.70355751910106" lon="15.018393436959116"><ele>2.0</ele><time>2026-04-18T15:37:54.999Z</time></trkpt><trkpt lat="36.70339540754387" lon="15.01833602337191"><ele>2.0</ele><time>2026-04-18T15:37:55.999Z</time></trkpt><trkpt lat="36.70323390655499" lon="15.018281139761212"><ele>2.0</ele><time>2026-04-18T15:37:56.999Z</time></trkpt><trkpt lat="36.703065200769046" lon="15.018221158283547"><ele>2.0</ele><time>2026-04-18T15:37:57.999Z</time></trkpt><trkpt lat="36.702909397188904" lon="15.018164995403875"><ele>2.0</ele><time>2026-04-18T15:37:58.999Z</time></trkpt><trkpt lat="36.702764643650525" lon="15.01811073792793"><ele>2.0</ele><time>2026-04-18T15:37:59.999Z</time></trkpt><trkpt lat="36.702645918823166" lon="15.01806992077252"><ele>2.0</ele><time>2026-04-18T15:38:00.999Z</time></trkpt><trkpt lat="36.70255560082324" lon="15.018032906746273"><ele>2.0</ele><time>2026-04-18T15:38:01.999Z</time></trkpt><trkpt lat="36.70247374590621" lon="15.018003102062822"><ele>2.2</ele><time>2026-04-18T15:38:02.999Z</time></trkpt><trkpt lat="36.7023748284905" lon="15.017970954309755"><ele>2.4000000000000004</ele><time>2026-04-18T15:38:04.999Z</time></trkpt><trkpt lat="36.702307491029124" lon="15.017937332645873"><ele>2.5999999999999996</ele><time>2026-04-18T15:38:08.999Z</time></trkpt><trkpt lat="36.70223331873445" lon="15.017886220502694"><ele>2.8</ele><time>2026-04-18T15:38:11.999Z</time></trkpt><trkpt lat="36.702161632615834" lon="15.018048879754627"><ele>3.0</ele><time>2026-04-18T15:38:19.999Z</time></trkpt><trkpt lat="36.702172382151495" lon="15.018152347209888"><ele>3.0</ele><time>2026-04-18T15:38:21.999Z</time></trkpt><trkpt lat="36.702170070044616" lon="15.018246422335098"><ele>3.0</ele><time>2026-04-18T15:38:22.999Z</time></trkpt><trkpt lat="36.702157990377444" lon="15.018365586242249"><ele>3.0</ele><time>2026-04-18T15:38:23.999Z</time></trkpt><trkpt lat="36.70213238466178" lon="15.01850546248783"><ele>3.0</ele><time>2026-04-18T15:38:24.999Z</time></trkpt><trkpt lat="36.7020939249249" lon="15.018664038171774"><ele>3.0</ele><time>2026-04-18T15:38:25.999Z</time></trkpt><trkpt lat="36.70203398574133" lon="15.018862008370206"><ele>3.333333333333333</ele><time>2026-04-18T15:38:26.999Z</time></trkpt><trkpt lat="36.701972718616034" lon="15.01905953843261"><ele>3.6666666666666665</ele><time>2026-04-18T15:38:27.999Z</time></trkpt><trkpt lat="36.70189858407739" lon="15.019271911527643"><ele>4.0</ele><time>2026-04-18T15:38:28.999Z</time></trkpt><trkpt lat="36.70183949108115" lon="15.01946056939261"><ele>4.0</ele><time>2026-04-18T15:38:29.999Z</time></trkpt><trkpt lat="36.70176880132176" lon="15.019640248699735"><ele>4.0</ele><time>2026-04-18T15:38:30.999Z</time></trkpt><trkpt lat="36.70171387510554" lon="15.019808709710805"><ele>4.0</ele><time>2026-04-18T15:38:31.999Z</time></trkpt><trkpt lat="36.701657132774514" lon="15.019974624541812"><ele>3.833333333333333</ele><time>2026-04-18T15:38:32.999Z</time></trkpt><trkpt lat="36.7016042701845" lon="15.020077295848534"><ele>3.6666666666666665</ele><time>2026-04-18T15:38:33.999Z</time></trkpt><trkpt lat="36.70156014817269" lon="15.020171081584337"><ele>3.5</ele><time>2026-04-18T15:38:34.999Z</time></trkpt><trkpt lat="36.7015172446474" lon="15.020283571624173"><ele>3.333333333333333</ele><time>2026-04-18T15:38:35.999Z</time></trkpt><trkpt lat="36.701473551580015" lon="15.020363721150545"><ele>3.1666666666666665</ele><time>2026-04-18T15:38:36.999Z</time></trkpt><trkpt lat="36.701434779848306" lon="15.02043150782292"><ele>3.0</ele><time>2026-04-18T15:38:37.999Z</time></trkpt><trkpt lat="36.701377556594885" lon="15.020543238555218"><ele>3.0</ele><time>2026-04-18T15:38:39.999Z</time></trkpt><trkpt lat="36.701322816269006" lon="15.020634630289386"><ele>3.0</ele><time>2026-04-18T15:38:41.999Z</time></trkpt><trkpt lat="36.70127268699528" lon="15.020750330600809"><ele>3.0</ele><time>2026-04-18T15:38:44Z</time></trkpt><trkpt lat="36.701246135467066" lon="15.02082616535297"><ele>3.0</ele><time>2026-04-18T15:38:45Z</time></trkpt><trkpt lat="36.70121704250645" lon="15.020926304876008"><ele>3.0</ele><time>2026-04-18T15:38:46Z</time></trkpt><trkpt lat="36.701187311052074" lon="15.021043359336002"><ele>3.0</ele><time>2026-04-18T15:38:47Z</time></trkpt><trkpt lat="36.70114232400434" lon="15.021184051531824"><ele>3.0</ele><time>2026-04-18T15:38:48Z</time></trkpt><trkpt lat="36.701082594054476" lon="15.02133852065123"><ele>3.0</ele><time>2026-04-18T15:38:49Z</time></trkpt><trkpt lat="36.70102692776627" lon="15.021504658287302"><ele>3.0</ele><time>2026-04-18T15:38:50Z</time></trkpt><trkpt lat="36.70096243185711" lon="15.021670648427772"><ele>3.0</ele><time>2026-04-18T15:38:51Z</time></trkpt><trkpt lat="36.70089449475919" lon="15.021845364867"><ele>3.0</ele><time>2026-04-18T15:38:52Z</time></trkpt><trkpt lat="36.70082257107417" lon="15.022015566922223"><ele>3.0</ele><time>2026-04-18T15:38:53Z</time></trkpt><trkpt lat="36.700749382688066" lon="15.022194681845678"><ele>3.0</ele><time>2026-04-18T15:38:54Z</time></trkpt><trkpt lat="36.70067746116176" lon="15.022362108864861"><ele>2.3333333333333335</ele><time>2026-04-18T15:38:55Z</time></trkpt><trkpt lat="36.70060236351352" lon="15.022538195889613"><ele>1.6666666666666665</ele><time>2026-04-18T15:38:56Z</time></trkpt><trkpt lat="36.7005294746961" lon="15.022711211623195"><ele>1.0</ele><time>2026-04-18T15:38:57Z</time></trkpt><trkpt lat="36.70045658282634" lon="15.022882505556638"><ele>1.0</ele><time>2026-04-18T15:38:58Z</time></trkpt><trkpt lat="36.700381759606216" lon="15.023068023385942"><ele>1.0</ele><time>2026-04-18T15:38:59Z</time></trkpt><trkpt lat="36.700310407492445" lon="15.023256670695217"><ele>1.0</ele><time>2026-04-18T15:39:00Z</time></trkpt><trkpt lat="36.70023088999636" lon="15.023447366489732"><ele>1.6666666666666665</ele><time>2026-04-18T15:39:01Z</time></trkpt><trkpt lat="36.70016011151406" lon="15.023678315549782"><ele>2.3333333333333335</ele><time>2026-04-18T15:39:02Z</time></trkpt><trkpt lat="36.700100162334955" lon="15.023827432701857"><ele>3.0</ele><time>2026-04-18T15:39:03Z</time></trkpt><trkpt lat="36.70004867692731" lon="15.023980408184393"><ele>3.0</ele><time>2026-04-18T15:39:04Z</time></trkpt><trkpt lat="36.70000931095017" lon="15.024114141073136"><ele>3.0</ele><time>2026-04-18T15:39:05Z</time></trkpt><trkpt lat="36.69998192444275" lon="15.024255804914295"><ele>3.0</ele><time>2026-04-18T15:39:06Z</time></trkpt><trkpt lat="36.69994692015724" lon="15.024359480250629"><ele>3.0</ele><time>2026-04-18T15:39:07Z</time></trkpt><trkpt lat="36.69992257922694" lon="15.02444942530552"><ele>3.0</ele><time>2026-04-18T15:39:08Z</time></trkpt><trkpt lat="36.699901627295866" lon="15.024536449494114"><ele>2.8333333333333335</ele><time>2026-04-18T15:39:09Z</time></trkpt><trkpt lat="36.69987615456923" lon="15.024623253297138"><ele>2.6666666666666665</ele><time>2026-04-18T15:39:10Z</time></trkpt><trkpt lat="36.69984651904856" lon="15.024705190797324"><ele>2.5</ele><time>2026-04-18T15:39:11Z</time></trkpt><trkpt lat="36.6998037510453" lon="15.024789108762524"><ele>2.333333333333333</ele><time>2026-04-18T15:39:12Z</time></trkpt><trkpt lat="36.699753072475254" lon="15.024860606366207"><ele>2.1666666666666665</ele><time>2026-04-18T15:39:14Z</time></trkpt><trkpt lat="36.69971771413093" lon="15.024975074978187"><ele>2.0</ele><time>2026-04-18T15:39:16Z</time></trkpt><trkpt lat="36.69969715072715" lon="15.025052182748599"><ele>1.9999999999999998</ele><time>2026-04-18T15:39:18Z</time></trkpt><trkpt lat="36.69967039247998" lon="15.02513458264811"><ele>2.0</ele><time>2026-04-18T15:39:20Z</time></trkpt><trkpt lat="36.69966399088197" lon="15.02523588214561"><ele>2.0</ele><time>2026-04-18T15:39:23Z</time></trkpt><trkpt lat="36.69975122217781" lon="15.025295055746952"><ele>2.0</ele><time>2026-04-18T15:39:26.999Z</time></trkpt><trkpt lat="36.69984377003969" lon="15.025351208505652"><ele>1.9999999999999998</ele><time>2026-04-18T15:39:29.999Z</time></trkpt><trkpt lat="36.69991702125095" lon="15.025378583214536"><ele>2.0</ele><time>2026-04-18T15:39:30.999Z</time></trkpt><trkpt lat="36.69998588943939" lon="15.025409451475976"><ele>2.0</ele><time>2026-04-18T15:39:31.999Z</time></trkpt><trkpt lat="36.70008648934489" lon="15.025440432447208"><ele>2.0</ele><time>2026-04-18T15:39:32.999Z</time></trkpt><trkpt lat="36.70016986207452" lon="15.025481800327064"><ele>2.0</ele><time>2026-04-18T15:39:33.999Z</time></trkpt><trkpt lat="36.70026630769005" lon="15.025532902964885"><ele>2.0</ele><time>2026-04-18T15:39:34.999Z</time></trkpt><trkpt lat="36.700359167630666" lon="15.025580910793588"><ele>2.0</ele><time>2026-04-18T15:39:35.999Z</time></trkpt><trkpt lat="36.70044583974795" lon="15.025626549325574"><ele>2.0</ele><time>2026-04-18T15:39:36.999Z</time></trkpt><trkpt lat="36.70053888839369" lon="15.025673673011951"><ele>2.0</ele><time>2026-04-18T15:39:37.999Z</time></trkpt><trkpt lat="36.70063692301371" lon="15.025720134959542"><ele>2.0</ele><time>2026-04-18T15:39:38.999Z</time></trkpt><trkpt lat="36.70074123907822" lon="15.025778911576234"><ele>2.0</ele><time>2026-04-18T15:39:39.999Z</time></trkpt><trkpt lat="36.700846753195286" lon="15.025830473653576"><ele>2.0</ele><time>2026-04-18T15:39:40.999Z</time></trkpt><trkpt lat="36.700953760236914" lon="15.025884510468067"><ele>2.0</ele><time>2026-04-18T15:39:41.999Z</time></trkpt><trkpt lat="36.70106739596402" lon="15.025934985694684"><ele>2.0</ele><time>2026-04-18T15:39:42.999Z</time></trkpt><trkpt lat="36.701177833496025" lon="15.025990630942614"><ele>2.0</ele><time>2026-04-18T15:39:43.999Z</time></trkpt><trkpt lat="36.70127624964689" lon="15.02604707174498"><ele>2.0</ele><time>2026-04-18T15:39:44.999Z</time></trkpt><trkpt lat="36.70136290640022" lon="15.026091455184837"><ele>2.0</ele><time>2026-04-18T15:39:45.999Z</time></trkpt><trkpt lat="36.701444588772475" lon="15.026128458683877"><ele>2.0</ele><time>2026-04-18T15:39:46.999Z</time></trkpt><trkpt lat="36.70151366575812" lon="15.026162154545352"><ele>2.0</ele><time>2026-04-18T15:39:47.999Z</time></trkpt><trkpt lat="36.701570325832016" lon="15.026204417095848"><ele>2.0</ele><time>2026-04-18T15:39:49.999Z</time></trkpt><trkpt lat="36.70152454712951" lon="15.026363108924567"><ele>2.0</ele><time>2026-04-18T15:39:52.999Z</time></trkpt><trkpt lat="36.70146322862531" lon="15.026467175120441"><ele>2.0</ele><time>2026-04-18T15:39:53.999Z</time></trkpt><trkpt lat="36.70142274702686" lon="15.026593616013233"><ele>2.0</ele><time>2026-04-18T15:39:54.999Z</time></trkpt><trkpt lat="36.701382639155675" lon="15.026718887914301"><ele>2.0</ele><time>2026-04-18T15:39:55.999Z</time></trkpt><trkpt lat="36.70135922821534" lon="15.026846270462322"><ele>2.0</ele><time>2026-04-18T15:39:56.999Z</time></trkpt><trkpt lat="36.70130040534897" lon="15.026975735940095"><ele>2.0</ele><time>2026-04-18T15:39:57.999Z</time></trkpt><trkpt lat="36.70125934869165" lon="15.02710446292511"><ele>2.0</ele><time>2026-04-18T15:39:58.999Z</time></trkpt><trkpt lat="36.70123557871154" lon="15.027228637857958"><ele>2.0</ele><time>2026-04-18T15:39:59.999Z</time></trkpt><trkpt lat="36.701195530648796" lon="15.02735003183935"><ele>2.0</ele><time>2026-04-18T15:40:00.999Z</time></trkpt><trkpt lat="36.701141044704976" lon="15.027469568933341"><ele>2.0</ele><time>2026-04-18T15:40:01.999Z</time></trkpt><trkpt lat="36.701104526084805" lon="15.02757891102002"><ele>2.0</ele><time>2026-04-18T15:40:02.999Z</time></trkpt><trkpt lat="36.70108046321669" lon="15.027707451285957"><ele>2.0</ele><time>2026-04-18T15:40:03.999Z</time></trkpt><trkpt lat="36.701022437340846" lon="15.027831453321753"><ele>2.0</ele><time>2026-04-18T15:40:04.999Z</time></trkpt><trkpt lat="36.70098225765197" lon="15.027955161295843"><ele>2.0</ele><time>2026-04-18T15:40:05.999Z</time></trkpt><trkpt lat="36.700942447666385" lon="15.028077731098245"><ele>2.0</ele><time>2026-04-18T15:40:06.999Z</time></trkpt><trkpt lat="36.70090618486714" lon="15.028188187921101"><ele>2.0</ele><time>2026-04-18T15:40:07.999Z</time></trkpt><trkpt lat="36.70088191417402" lon="15.028308654077183"><ele>2.0</ele><time>2026-04-18T15:40:08.999Z</time></trkpt><trkpt lat="36.70084067215609" lon="15.028423490175184"><ele>2.0</ele><time>2026-04-18T15:40:09.999Z</time></trkpt><trkpt lat="36.700803627107" lon="15.028543457079424"><ele>2.0</ele><time>2026-04-18T15:40:10.999Z</time></trkpt><trkpt lat="36.70076834190139" lon="15.02865989887984"><ele>2.0</ele><time>2026-04-18T15:40:11.999Z</time></trkpt><trkpt lat="36.70073305680423" lon="15.02877222972147"><ele>2.0</ele><time>2026-04-18T15:40:12.999Z</time></trkpt><trkpt lat="36.70070059442171" lon="15.028880276485806"><ele>2.0</ele><time>2026-04-18T15:40:13.999Z</time></trkpt><trkpt lat="36.70067181007485" lon="15.028986433584844"><ele>1.9999999999999998</ele><time>2026-04-18T15:40:14.999Z</time></trkpt><trkpt lat="36.70064348233764" lon="15.02907670979779"><ele>2.0</ele><time>2026-04-18T15:40:15.999Z</time></trkpt><trkpt lat="36.700617419072096" lon="15.029159377260598"><ele>2.0</ele><time>2026-04-18T15:40:16.999Z</time></trkpt><trkpt lat="36.700590819670765" lon="15.029233946381273"><ele>2.0</ele><time>2026-04-18T15:40:17.999Z</time></trkpt><trkpt lat="36.70049514040982" lon="15.029174093430209"><ele>1.9999999999999998</ele><time>2026-04-18T15:40:21.999Z</time></trkpt><trkpt lat="36.700430818337026" lon="15.029141007093614"><ele>2.0</ele><time>2026-04-18T15:40:22.999Z</time></trkpt><trkpt lat="36.70032798722677" lon="15.029088112264946"><ele>1.9999999999999998</ele><time>2026-04-18T15:40:24.999Z</time></trkpt><trkpt lat="36.70025991233591" lon="15.029053095554788"><ele>2.0</ele><time>2026-04-18T15:40:25.999Z</time></trkpt><trkpt lat="36.70018722020851" lon="15.029015703776865"><ele>2.0</ele><time>2026-04-18T15:40:26.999Z</time></trkpt><trkpt lat="36.70010715933959" lon="15.028974521650115"><ele>2.0</ele><time>2026-04-18T15:40:27.999Z</time></trkpt><trkpt lat="36.70003258137431" lon="15.028936159836286"><ele>1.9999999999999998</ele><time>2026-04-18T15:40:28.999Z</time></trkpt><trkpt lat="36.69994996348005" lon="15.02889366242056"><ele>2.0</ele><time>2026-04-18T15:40:29.999Z</time></trkpt><trkpt lat="36.69987351773862" lon="15.02885433949782"><ele>2.0</ele><time>2026-04-18T15:40:30.999Z</time></trkpt><trkpt lat="36.69977879602166" lon="15.028805615195745"><ele>2.0</ele><time>2026-04-18T15:40:31.999Z</time></trkpt><trkpt lat="36.6996975136417" lon="15.028763804006658"><ele>2.0</ele><time>2026-04-18T15:40:32.999Z</time></trkpt><trkpt lat="36.69959581700056" lon="15.028735342896114"><ele>2.0</ele><time>2026-04-18T15:40:33.999Z</time></trkpt><trkpt lat="36.69950313634985" lon="15.028687618754725"><ele>2.0</ele><time>2026-04-18T15:40:34.999Z</time></trkpt><trkpt lat="36.69940095855851" lon="15.02863437413434"><ele>2.5</ele><time>2026-04-18T15:40:35.999Z</time></trkpt><trkpt lat="36.69937357666279" lon="15.028388229971656"><ele>3.0</ele><time>2026-04-18T15:40:36.999Z</time></trkpt><trkpt lat="36.69927590532133" lon="15.028337631125265"><ele>3.5</ele><time>2026-04-18T15:40:37.999Z</time></trkpt><trkpt lat="36.699174500272264" lon="15.028285254141267"><ele>4.0</ele><time>2026-04-18T15:40:38.999Z</time></trkpt><trkpt lat="36.69907626585599" lon="15.028235336460217"><ele>3.9999999999999996</ele><time>2026-04-18T15:40:39.999Z</time></trkpt><trkpt lat="36.69898451250966" lon="15.028188711921345"><ele>4.0</ele><time>2026-04-18T15:40:40.998Z</time></trkpt><trkpt lat="36.69891003247379" lon="15.028151538612734"><ele>4.0</ele><time>2026-04-18T15:40:41.998Z</time></trkpt><trkpt lat="36.69883089996961" lon="15.028112072702454"><ele>4.0</ele><time>2026-04-18T15:40:42.998Z</time></trkpt><trkpt lat="36.69875373825147" lon="15.028073589653886"><ele>3.9999999999999996</ele><time>2026-04-18T15:40:43.998Z</time></trkpt><trkpt lat="36.698692652370426" lon="15.028043124181433"><ele>4.0</ele><time>2026-04-18T15:40:44.998Z</time></trkpt><trkpt lat="36.698586664926836" lon="15.027991126397342"><ele>4.6</ele><time>2026-04-18T15:40:46.998Z</time></trkpt><trkpt lat="36.69850829069827" lon="15.027953733919938"><ele>5.2</ele><time>2026-04-18T15:40:50Z</time></trkpt><trkpt lat="36.69843426675418" lon="15.027918416577151"><ele>5.799999999999999</ele><time>2026-04-18T15:40:54Z</time></trkpt><trkpt lat="36.69835307131029" lon="15.027879677426805"><ele>6.3999999999999995</ele><time>2026-04-18T15:40:56Z</time></trkpt><trkpt lat="36.69828043565276" lon="15.027845022233901"><ele>7.0</ele><time>2026-04-18T15:40:59Z</time></trkpt><trkpt lat="36.69816110237477" lon="15.027990978270303"><ele>7.0</ele><time>2026-04-18T15:41:01Z</time></trkpt><trkpt lat="36.69806144258642" lon="15.028112922317304"><ele>6.999999999999999</ele><time>2026-04-18T15:41:03Z</time></trkpt><trkpt lat="36.698004905109386" lon="15.028193767661959"><ele>6.999999999999999</ele><time>2026-04-18T15:41:04Z</time></trkpt><trkpt lat="36.697949479436275" lon="15.028283126173458"><ele>7.0</ele><time>2026-04-18T15:41:06Z</time></trkpt><trkpt lat="36.69788872438399" lon="15.028385746066895"><ele>7.0</ele><time>2026-04-18T15:41:08Z</time></trkpt><trkpt lat="36.69783298525971" lon="15.02849524234897"><ele>6.6</ele><time>2026-04-18T15:41:10Z</time></trkpt><trkpt lat="36.69777653991397" lon="15.02860286825169"><ele>6.199999999999999</ele><time>2026-04-18T15:41:12Z</time></trkpt><trkpt lat="36.69771039347551" lon="15.028740387471066"><ele>5.8</ele><time>2026-04-18T15:41:14Z</time></trkpt><trkpt lat="36.69767103677497" lon="15.028812970114283"><ele>5.4</ele><time>2026-04-18T15:41:15Z</time></trkpt><trkpt lat="36.697635154099345" lon="15.028879659653432"><ele>5.0</ele><time>2026-04-18T15:41:16Z</time></trkpt><trkpt lat="36.697559277956934" lon="15.02900914847951"><ele>4.714285714285714</ele><time>2026-04-18T15:41:18Z</time></trkpt><trkpt lat="36.697520510462695" lon="15.029078217694938"><ele>4.428571428571429</ele><time>2026-04-18T15:41:19Z</time></trkpt><trkpt lat="36.697481532421335" lon="15.029145971773238"><ele>4.142857142857142</ele><time>2026-04-18T15:41:20Z</time></trkpt><trkpt lat="36.69743863075985" lon="15.029216491750077"><ele>3.8571428571428568</ele><time>2026-04-18T15:41:21Z</time></trkpt><trkpt lat="36.6973965922346" lon="15.029283323250535"><ele>3.571428571428571</ele><time>2026-04-18T15:41:22Z</time></trkpt><trkpt lat="36.69735870814606" lon="15.029351989834714"><ele>3.2857142857142856</ele><time>2026-04-18T15:41:23Z</time></trkpt><trkpt lat="36.697313068629725" lon="15.02942047532092"><ele>3.0</ele><time>2026-04-18T15:41:24Z</time></trkpt><trkpt lat="36.69726970276421" lon="15.02948438686746"><ele>3.0</ele><time>2026-04-18T15:41:25Z</time></trkpt><trkpt lat="36.69721663320252" lon="15.029563389275266"><ele>3.0</ele><time>2026-04-18T15:41:26Z</time></trkpt><trkpt lat="36.69716865517331" lon="15.029644154901977"><ele>3.0</ele><time>2026-04-18T15:41:27Z</time></trkpt><trkpt lat="36.6971184857374" lon="15.029727792265884"><ele>3.0</ele><time>2026-04-18T15:41:28Z</time></trkpt><trkpt lat="36.69706692732569" lon="15.029813367114826"><ele>3.0</ele><time>2026-04-18T15:41:29Z</time></trkpt><trkpt lat="36.697014529770584" lon="15.029897142986279"><ele>3.0</ele><time>2026-04-18T15:41:29.999Z</time></trkpt><trkpt lat="36.696947519350466" lon="15.029989500772961"><ele>2.1999999999999997</ele><time>2026-04-18T15:41:30.999Z</time></trkpt><trkpt lat="36.696883475705626" lon="15.03008727239701"><ele>1.4</ele><time>2026-04-18T15:41:31.999Z</time></trkpt><trkpt lat="36.69682437293546" lon="15.030185399830348"><ele>0.5999999999999999</ele><time>2026-04-18T15:41:32.999Z</time></trkpt><trkpt lat="36.696755796278154" lon="15.030295391090268"><ele>-0.20000000000000007</ele><time>2026-04-18T15:41:33.999Z</time></trkpt><trkpt lat="36.696681560559895" lon="15.03040819821764"><ele>-1.0</ele><time>2026-04-18T15:41:34.999Z</time></trkpt><trkpt lat="36.69660322581501" lon="15.030524684690672"><ele>-1.0</ele><time>2026-04-18T15:41:35.999Z</time></trkpt><trkpt lat="36.69652055429529" lon="15.030643451389121"><ele>-1.0</ele><time>2026-04-18T15:41:36.999Z</time></trkpt><trkpt lat="36.696437721173474" lon="15.030770081839005"><ele>-1.0</ele><time>2026-04-18T15:41:37.999Z</time></trkpt><trkpt lat="36.696360167270306" lon="15.030907164370362"><ele>-1.0</ele><time>2026-04-18T15:41:38.999Z</time></trkpt><trkpt lat="36.69628079173169" lon="15.031059658301935"><ele>-0.6666666666666666</ele><time>2026-04-18T15:41:39.999Z</time></trkpt><trkpt lat="36.696195216117545" lon="15.031202105307063"><ele>-0.3333333333333333</ele><time>2026-04-18T15:41:40.999Z</time></trkpt><trkpt lat="36.69609762737501" lon="15.031352653893649"><ele>0.0</ele><time>2026-04-18T15:41:41.999Z</time></trkpt><trkpt lat="36.69598612084058" lon="15.031539242418654"><ele>1.0</ele><time>2026-04-18T15:41:42.999Z</time></trkpt><trkpt lat="36.695976915514166" lon="15.03166055805556"><ele>2.0</ele><time>2026-04-18T15:41:43.999Z</time></trkpt><trkpt lat="36.695837055099155" lon="15.031857451240873"><ele>3.0</ele><time>2026-04-18T15:41:44.999Z</time></trkpt><trkpt lat="36.695726293077236" lon="15.03196879100095"><ele>3.0</ele><time>2026-04-18T15:41:45.999Z</time></trkpt><trkpt lat="36.69563435537036" lon="15.032120920554775"><ele>3.0</ele><time>2026-04-18T15:41:46.999Z</time></trkpt><trkpt lat="36.695543008038065" lon="15.032275915396268"><ele>3.0</ele><time>2026-04-18T15:41:47.999Z</time></trkpt><trkpt lat="36.69544608264886" lon="15.032439494634003"><ele>3.333333333333333</ele><time>2026-04-18T15:41:48.999Z</time></trkpt><trkpt lat="36.69531448484755" lon="15.03256054677013"><ele>3.6666666666666665</ele><time>2026-04-18T15:41:49.999Z</time></trkpt><trkpt lat="36.695203523827715" lon="15.032803118603496"><ele>4.0</ele><time>2026-04-18T15:41:50.999Z</time></trkpt><trkpt lat="36.6950722836859" lon="15.033046366925669"><ele>4.0</ele><time>2026-04-18T15:41:51.999Z</time></trkpt><trkpt lat="36.694958559191065" lon="15.033197806569092"><ele>4.0</ele><time>2026-04-18T15:41:52.999Z</time></trkpt><trkpt lat="36.69484439473044" lon="15.033365157889962"><ele>4.0</ele><time>2026-04-18T15:41:53.999Z</time></trkpt><trkpt lat="36.69472372699092" lon="15.03353720623009"><ele>4.0</ele><time>2026-04-18T15:41:54.999Z</time></trkpt><trkpt lat="36.69460166319396" lon="15.0336985184977"><ele>4.0</ele><time>2026-04-18T15:41:55.999Z</time></trkpt><trkpt lat="36.69447768452933" lon="15.033861543876904"><ele>4.0</ele><time>2026-04-18T15:41:56.999Z</time></trkpt><trkpt lat="36.694330500277914" lon="15.034008634128947"><ele>3.333333333333333</ele><time>2026-04-18T15:41:57.999Z</time></trkpt><trkpt lat="36.694207593660884" lon="15.034170660636557"><ele>2.6666666666666665</ele><time>2026-04-18T15:41:58.999Z</time></trkpt><trkpt lat="36.69407513390396" lon="15.034324833234233"><ele>2.0</ele><time>2026-04-18T15:41:59.999Z</time></trkpt><trkpt lat="36.69393698042724" lon="15.03448371770204"><ele>2.0</ele><time>2026-04-18T15:42:00.999Z</time></trkpt><trkpt lat="36.69379822560591" lon="15.034641131813075"><ele>2.0</ele><time>2026-04-18T15:42:01.999Z</time></trkpt><trkpt lat="36.693655194306956" lon="15.03479290762344"><ele>2.0</ele><time>2026-04-18T15:42:02.999Z</time></trkpt><trkpt lat="36.69351047373434" lon="15.03495796211429"><ele>1.6666666666666665</ele><time>2026-04-18T15:42:03.999Z</time></trkpt><trkpt lat="36.69337151455321" lon="15.035093509166098"><ele>1.3333333333333333</ele><time>2026-04-18T15:42:04.999Z</time></trkpt><trkpt lat="36.69323367062687" lon="15.035228654218054"><ele>1.0</ele><time>2026-04-18T15:42:05.999Z</time></trkpt><trkpt lat="36.69309863871002" lon="15.035359801470793"><ele>1.0</ele><time>2026-04-18T15:42:06.999Z</time></trkpt><trkpt lat="36.69296496911777" lon="15.03549646885425"><ele>1.0</ele><time>2026-04-18T15:42:07.999Z</time></trkpt><trkpt lat="36.69283665554144" lon="15.03563450826447"><ele>1.0</ele><time>2026-04-18T15:42:08.999Z</time></trkpt><trkpt lat="36.692693847798225" lon="15.03578292354629"><ele>2.0</ele><time>2026-04-18T15:42:09.999Z</time></trkpt><trkpt lat="36.69254997347318" lon="15.03593208266777"><ele>3.0</ele><time>2026-04-18T15:42:10.999Z</time></trkpt><trkpt lat="36.69240309217068" lon="15.036076943752487"><ele>4.0</ele><time>2026-04-18T15:42:11.999Z</time></trkpt><trkpt lat="36.69227004997494" lon="15.036202240477616"><ele>4.0</ele><time>2026-04-18T15:42:12.999Z</time></trkpt><trkpt lat="36.692135388425456" lon="15.036316394246027"><ele>4.0</ele><time>2026-04-18T15:42:13.999Z</time></trkpt><trkpt lat="36.69198695194597" lon="15.036453783771378"><ele>4.0</ele><time>2026-04-18T15:42:14.999Z</time></trkpt><trkpt lat="36.691838065233746" lon="15.036581447278165"><ele>3.75</ele><time>2026-04-18T15:42:15.999Z</time></trkpt><trkpt lat="36.69170147763848" lon="15.036693740701004"><ele>3.5</ele><time>2026-04-18T15:42:16.999Z</time></trkpt><trkpt lat="36.691594597124826" lon="15.036787129964482"><ele>3.25</ele><time>2026-04-18T15:42:17.999Z</time></trkpt><trkpt lat="36.691487457008584" lon="15.03687295294192"><ele>3.0</ele><time>2026-04-18T15:42:18.999Z</time></trkpt><trkpt lat="36.69138244032848" lon="15.036955149538741"><ele>3.0</ele><time>2026-04-18T15:42:19.999Z</time></trkpt><trkpt lat="36.69127210910858" lon="15.037031293107054"><ele>3.0</ele><time>2026-04-18T15:42:20.999Z</time></trkpt><trkpt lat="36.69116048573072" lon="15.037094324731921"><ele>3.0</ele><time>2026-04-18T15:42:21.999Z</time></trkpt><trkpt lat="36.69104780286192" lon="15.037156446965364"><ele>3.0</ele><time>2026-04-18T15:42:22.999Z</time></trkpt><trkpt lat="36.69092877356236" lon="15.037211037238428"><ele>2.6</ele><time>2026-04-18T15:42:23.999Z</time></trkpt><trkpt lat="36.69080898170968" lon="15.037256550514773"><ele>2.1999999999999997</ele><time>2026-04-18T15:42:24.999Z</time></trkpt><trkpt lat="36.690706905793895" lon="15.037298649084933"><ele>1.8</ele><time>2026-04-18T15:42:25.999Z</time></trkpt><trkpt lat="36.69062056292605" lon="15.03733422145626"><ele>1.4</ele><time>2026-04-18T15:42:26.999Z</time></trkpt><trkpt lat="36.690545370448454" lon="15.037361432274645"><ele>1.0</ele><time>2026-04-18T15:42:27.999Z</time></trkpt><trkpt lat="36.69044818810074" lon="15.037382301990913"><ele>0.9999999999999999</ele><time>2026-04-18T15:42:28.999Z</time></trkpt><trkpt lat="36.69038028901118" lon="15.037336369082139"><ele>1.0</ele><time>2026-04-18T15:42:30.999Z</time></trkpt><trkpt lat="36.690299911315186" lon="15.03736773599902"><ele>1.0</ele><time>2026-04-18T15:42:34.999Z</time></trkpt><trkpt lat="36.69021251438922" lon="15.037378249627162"><ele>1.0</ele><time>2026-04-18T15:42:37.999Z</time></trkpt><trkpt lat="36.69022106641884" lon="15.03729026628024"><ele>0.9999999999999999</ele><time>2026-04-18T15:42:48.999Z</time></trkpt><trkpt lat="36.690318965120724" lon="15.037379006701434"><ele>1.0</ele><time>2026-04-18T15:42:50.999Z</time></trkpt><trkpt lat="36.69038729970062" lon="15.037450200642711"><ele>1.2000000000000002</ele><time>2026-04-18T15:42:51.998Z</time></trkpt><trkpt lat="36.69044977948939" lon="15.037543103161635"><ele>1.4000000000000001</ele><time>2026-04-18T15:42:53.998Z</time></trkpt><trkpt lat="36.69044535043372" lon="15.03764689461251"><ele>1.6</ele><time>2026-04-18T15:42:56Z</time></trkpt><trkpt lat="36.690447221940325" lon="15.037783060259924"><ele>1.8</ele><time>2026-04-18T15:42:58Z</time></trkpt><trkpt lat="36.69046454278423" lon="15.037906525346232"><ele>2.0</ele><time>2026-04-18T15:43:00Z</time></trkpt><trkpt lat="36.690506656753456" lon="15.038020855656269"><ele>2.0</ele><time>2026-04-18T15:43:02Z</time></trkpt><trkpt lat="36.69057691796978" lon="15.038092844878289"><ele>2.0</ele><time>2026-04-18T15:43:04Z</time></trkpt><trkpt lat="36.690671712784216" lon="15.038161207998947"><ele>2.0</ele><time>2026-04-18T15:43:06Z</time></trkpt><trkpt lat="36.69076355557234" lon="15.038237484596046"><ele>2.0</ele><time>2026-04-18T15:43:08Z</time></trkpt><trkpt lat="36.690835737973046" lon="15.038310481312799"><ele>2.0</ele><time>2026-04-18T15:43:10Z</time></trkpt><trkpt lat="36.69091232831811" lon="15.038392100176162"><ele>1.8333333333333333</ele><time>2026-04-18T15:43:13Z</time></trkpt><trkpt lat="36.69097995074624" lon="15.038396332221357"><ele>1.6666666666666665</ele><time>2026-04-18T15:43:18Z</time></trkpt><trkpt lat="36.69104706254315" lon="15.038358743231088"><ele>1.5</ele><time>2026-04-18T15:43:20Z</time></trkpt><trkpt lat="36.691149574014524" lon="15.038358031012262"><ele>1.3333333333333333</ele><time>2026-04-18T15:43:23Z</time></trkpt><trkpt lat="36.69120797161886" lon="15.03839662325543"><ele>1.1666666666666665</ele><time>2026-04-18T15:43:24Z</time></trkpt><trkpt lat="36.691276132874584" lon="15.03844562339336"><ele>1.0</ele><time>2026-04-18T15:43:25Z</time></trkpt><trkpt lat="36.69135346330705" lon="15.038500521320218"><ele>1.8</ele><time>2026-04-18T15:43:26Z</time></trkpt><trkpt lat="36.69143662272444" lon="15.038553352604298"><ele>2.6</ele><time>2026-04-18T15:43:27Z</time></trkpt><trkpt lat="36.69152933926512" lon="15.03861089479013"><ele>3.4</ele><time>2026-04-18T15:43:28Z</time></trkpt><trkpt lat="36.691627203445584" lon="15.038668826154847"><ele>4.2</ele><time>2026-04-18T15:43:29Z</time></trkpt><trkpt lat="36.6917075375849" lon="15.038721273195394"><ele>5.0</ele><time>2026-04-18T15:43:30Z</time></trkpt><trkpt lat="36.691788345803005" lon="15.038772157892442"><ele>5.0</ele><time>2026-04-18T15:43:31Z</time></trkpt><trkpt lat="36.691869285651826" lon="15.038819047089001"><ele>5.0</ele><time>2026-04-18T15:43:32Z</time></trkpt><trkpt lat="36.6919472825953" lon="15.038865017460806"><ele>5.0</ele><time>2026-04-18T15:43:33Z</time></trkpt><trkpt lat="36.69202826366084" lon="15.038913914999853"><ele>5.0</ele><time>2026-04-18T15:43:34Z</time></trkpt><trkpt lat="36.69210415836255" lon="15.038961588064387"><ele>5.0</ele><time>2026-04-18T15:43:35Z</time></trkpt><trkpt lat="36.69219006653677" lon="15.03901742391365"><ele>5.0</ele><time>2026-04-18T15:43:36Z</time></trkpt><trkpt lat="36.69227480411574" lon="15.03906705470511"><ele>6.2</ele><time>2026-04-18T15:43:37Z</time></trkpt><trkpt lat="36.69236314924747" lon="15.039121166292752"><ele>7.4</ele><time>2026-04-18T15:43:38Z</time></trkpt><trkpt lat="36.69246288078839" lon="15.0391793063417"><ele>8.600000000000001</ele><time>2026-04-18T15:43:39Z</time></trkpt><trkpt lat="36.69256905554707" lon="15.039243746808296"><ele>9.8</ele><time>2026-04-18T15:43:40Z</time></trkpt><trkpt lat="36.69267244645958" lon="15.039310162910622"><ele>11.0</ele><time>2026-04-18T15:43:41Z</time></trkpt><trkpt lat="36.692773348075136" lon="15.039372052391949"><ele>11.8</ele><time>2026-04-18T15:43:42Z</time></trkpt><trkpt lat="36.692855184540974" lon="15.039460258383542"><ele>12.600000000000001</ele><time>2026-04-18T15:43:43Z</time></trkpt><trkpt lat="36.69292982798946" lon="15.039499746102999"><ele>13.4</ele><time>2026-04-18T15:43:44Z</time></trkpt><trkpt lat="36.69298849669416" lon="15.039530748038777"><ele>14.2</ele><time>2026-04-18T15:43:44.999Z</time></trkpt><trkpt lat="36.69305545639196" lon="15.039571612827938"><ele>15.0</ele><time>2026-04-18T15:43:46.999Z</time></trkpt><trkpt lat="36.69297956075811" lon="15.039758124407648"><ele>15.0</ele><time>2026-04-18T15:43:48.999Z</time></trkpt><trkpt lat="36.69296883076286" lon="15.039872543306517"><ele>15.0</ele><time>2026-04-18T15:43:49.999Z</time></trkpt><trkpt lat="36.692961617877216" lon="15.039982237686536"><ele>15.0</ele><time>2026-04-18T15:43:50.999Z</time></trkpt><trkpt lat="36.692958784173456" lon="15.040093276343503"><ele>15.0</ele><time>2026-04-18T15:43:51.999Z</time></trkpt><trkpt lat="36.69295612581633" lon="15.040192383317278"><ele>15.0</ele><time>2026-04-18T15:43:52.999Z</time></trkpt><trkpt lat="36.692968363586765" lon="15.040284565792113"><ele>15.0</ele><time>2026-04-18T15:43:53.999Z</time></trkpt><trkpt lat="36.69297691298721" lon="15.040363910005945"><ele>15.6</ele><time>2026-04-18T15:43:54.999Z</time></trkpt><trkpt lat="36.69299369871604" lon="15.040519031612872"><ele>16.2</ele><time>2026-04-18T15:43:56.999Z</time></trkpt><trkpt lat="36.69300447346147" lon="15.040618604049936"><ele>16.8</ele><time>2026-04-18T15:43:57.999Z</time></trkpt><trkpt lat="36.69301537738149" lon="15.040718835411855"><ele>17.4</ele><time>2026-04-18T15:43:58.999Z</time></trkpt><trkpt lat="36.69302747497547" lon="15.040830115028669"><ele>18.0</ele><time>2026-04-18T15:43:59.999Z</time></trkpt><trkpt lat="36.693038292534276" lon="15.040929620253204"><ele>18.666666666666668</ele><time>2026-04-18T15:44:00.999Z</time></trkpt><trkpt lat="36.693048172973256" lon="15.041020505427293"><ele>19.333333333333332</ele><time>2026-04-18T15:44:01.999Z</time></trkpt><trkpt lat="36.6930614150457" lon="15.041110863879043"><ele>20.0</ele><time>2026-04-18T15:44:02.999Z</time></trkpt><trkpt lat="36.693074089035214" lon="15.0412061346102"><ele>20.666666666666664</ele><time>2026-04-18T15:44:03.999Z</time></trkpt><trkpt lat="36.69308601753963" lon="15.041305681838763"><ele>21.333333333333332</ele><time>2026-04-18T15:44:04.999Z</time></trkpt><trkpt lat="36.693103620530096" lon="15.041446748326264"><ele>22.0</ele><time>2026-04-18T15:44:05.999Z</time></trkpt><trkpt lat="36.693122830242565" lon="15.041539019766645"><ele>22.0</ele><time>2026-04-18T15:44:06.999Z</time></trkpt><trkpt lat="36.693111627118235" lon="15.04161773366421"><ele>22.0</ele><time>2026-04-18T15:44:07.999Z</time></trkpt><trkpt lat="36.693110108928664" lon="15.041726288739763"><ele>22.0</ele><time>2026-04-18T15:44:08.999Z</time></trkpt><trkpt lat="36.69309946113196" lon="15.041831693214268"><ele>22.0</ele><time>2026-04-18T15:44:09.999Z</time></trkpt><trkpt lat="36.69306624624959" lon="15.041929083050706"><ele>22.0</ele><time>2026-04-18T15:44:10.999Z</time></trkpt><trkpt lat="36.69303371420515" lon="15.042031433185063"><ele>22.0</ele><time>2026-04-18T15:44:11.999Z</time></trkpt><trkpt lat="36.69299823801693" lon="15.042134655520162"><ele>22.0</ele><time>2026-04-18T15:44:12.999Z</time></trkpt><trkpt lat="36.692960484258016" lon="15.042231755467634"><ele>22.0</ele><time>2026-04-18T15:44:13.999Z</time></trkpt><trkpt lat="36.692920091377516" lon="15.042331554066028"><ele>22.0</ele><time>2026-04-18T15:44:14.999Z</time></trkpt><trkpt lat="36.6928856834481" lon="15.042416565653806"><ele>22.0</ele><time>2026-04-18T15:44:15.999Z</time></trkpt><trkpt lat="36.692851084481504" lon="15.042502697521654"><ele>22.0</ele><time>2026-04-18T15:44:16.999Z</time></trkpt><trkpt lat="36.692815511367286" lon="15.042592809039094"><ele>22.0</ele><time>2026-04-18T15:44:17.999Z</time></trkpt><trkpt lat="36.69277621212569" lon="15.042692359344105"><ele>21.400000000000002</ele><time>2026-04-18T15:44:18.999Z</time></trkpt><trkpt lat="36.69273627901621" lon="15.042798079542246"><ele>20.8</ele><time>2026-04-18T15:44:19.999Z</time></trkpt><trkpt lat="36.69269646687721" lon="15.042908639090912"><ele>20.2</ele><time>2026-04-18T15:44:20.999Z</time></trkpt><trkpt lat="36.69267008421215" lon="15.043029805313466"><ele>19.6</ele><time>2026-04-18T15:44:21.999Z</time></trkpt><trkpt lat="36.69262390844147" lon="15.043140145433501"><ele>19.0</ele><time>2026-04-18T15:44:22.999Z</time></trkpt><trkpt lat="36.69258270715554" lon="15.043260642716595"><ele>19.0</ele><time>2026-04-18T15:44:23.999Z</time></trkpt><trkpt lat="36.692544557568205" lon="15.04335635796601"><ele>19.0</ele><time>2026-04-18T15:44:24.999Z</time></trkpt><trkpt lat="36.692514237605394" lon="15.043442168240404"><ele>19.0</ele><time>2026-04-18T15:44:25.999Z</time></trkpt><trkpt lat="36.692480422554034" lon="15.043531512712802"><ele>19.0</ele><time>2026-04-18T15:44:26.999Z</time></trkpt><trkpt lat="36.6924445481071" lon="15.043623375913711"><ele>19.0</ele><time>2026-04-18T15:44:27.999Z</time></trkpt><trkpt lat="36.69241898379074" lon="15.043726529432947"><ele>19.0</ele><time>2026-04-18T15:44:28.999Z</time></trkpt><trkpt lat="36.69237215471209" lon="15.043824154007181"><ele>19.0</ele><time>2026-04-18T15:44:29.999Z</time></trkpt><trkpt lat="36.69233624783068" lon="15.043930710923762"><ele>19.0</ele><time>2026-04-18T15:44:30.999Z</time></trkpt><trkpt lat="36.69229844880713" lon="15.044042882937635"><ele>19.0</ele><time>2026-04-18T15:44:31.999Z</time></trkpt><trkpt lat="36.69227504785491" lon="15.04415691837696"><ele>19.0</ele><time>2026-04-18T15:44:32.999Z</time></trkpt><trkpt lat="36.692240264568646" lon="15.044269048270328"><ele>19.0</ele><time>2026-04-18T15:44:33.999Z</time></trkpt><trkpt lat="36.69219332408225" lon="15.044354850072631"><ele>19.0</ele><time>2026-04-18T15:44:34.999Z</time></trkpt><trkpt lat="36.692158516156276" lon="15.044459665580929"><ele>19.0</ele><time>2026-04-18T15:44:35.999Z</time></trkpt><trkpt lat="36.692098881788105" lon="15.044665909825484"><ele>19.0</ele><time>2026-04-18T15:44:37.999Z</time></trkpt><trkpt lat="36.69206722912114" lon="15.044779325645848"><ele>19.0</ele><time>2026-04-18T15:44:38.999Z</time></trkpt><trkpt lat="36.692034875353514" lon="15.044895253605262"><ele>19.2</ele><time>2026-04-18T15:44:39.999Z</time></trkpt><trkpt lat="36.69200246759148" lon="15.045008492631906"><ele>19.4</ele><time>2026-04-18T15:44:40.999Z</time></trkpt><trkpt lat="36.691974095835164" lon="15.045103187968671"><ele>19.6</ele><time>2026-04-18T15:44:41.999Z</time></trkpt><trkpt lat="36.691939644247796" lon="15.045215019505047"><ele>19.8</ele><time>2026-04-18T15:44:42.999Z</time></trkpt><trkpt lat="36.69189974608576" lon="15.045329865821738"><ele>20.0</ele><time>2026-04-18T15:44:43.999Z</time></trkpt><trkpt lat="36.6918677483387" lon="15.045447412583094"><ele>19.0</ele><time>2026-04-18T15:44:44.999Z</time></trkpt><trkpt lat="36.69182803594651" lon="15.045552580438425"><ele>18.0</ele><time>2026-04-18T15:44:45.999Z</time></trkpt><trkpt lat="36.691778934043874" lon="15.045646930061501"><ele>17.0</ele><time>2026-04-18T15:44:46.999Z</time></trkpt><trkpt lat="36.69174666680861" lon="15.045763345345627"><ele>16.0</ele><time>2026-04-18T15:44:47.999Z</time></trkpt><trkpt lat="36.691706581365644" lon="15.045843212016916"><ele>15.0</ele><time>2026-04-18T15:44:48.999Z</time></trkpt><trkpt lat="36.69165812548214" lon="15.045968443433805"><ele>14.5</ele><time>2026-04-18T15:44:49.999Z</time></trkpt><trkpt lat="36.69162029138848" lon="15.04604681751928"><ele>14.0</ele><time>2026-04-18T15:44:50.999Z</time></trkpt><trkpt lat="36.69157418580739" lon="15.046144217526553"><ele>13.5</ele><time>2026-04-18T15:44:52.999Z</time></trkpt><trkpt lat="36.69150515376256" lon="15.046115725271893"><ele>13.0</ele><time>2026-04-18T15:44:55.999Z</time></trkpt><trkpt lat="36.691450677145944" lon="15.046027848874767"><ele>12.5</ele><time>2026-04-18T15:44:57.999Z</time></trkpt><trkpt lat="36.69137593093594" lon="15.04594266980837"><ele>12.0</ele><time>2026-04-18T15:44:59.999Z</time></trkpt><trkpt lat="36.6913048291121" lon="15.045855478347685"><ele>12.6</ele><time>2026-04-18T15:45:02Z</time></trkpt><trkpt lat="36.691232381606646" lon="15.045766852774154"><ele>13.2</ele><time>2026-04-18T15:45:04Z</time></trkpt><trkpt lat="36.691139011399095" lon="15.045712599572372"><ele>13.8</ele><time>2026-04-18T15:45:06Z</time></trkpt><trkpt lat="36.69103971832009" lon="15.045638592283005"><ele>14.4</ele><time>2026-04-18T15:45:08Z</time></trkpt><trkpt lat="36.69104467698872" lon="15.045488376845716"><ele>15.0</ele><time>2026-04-18T15:45:09Z</time></trkpt><trkpt lat="36.69098152940349" lon="15.045391264883289"><ele>13.6</ele><time>2026-04-18T15:45:11Z</time></trkpt><trkpt lat="36.69093080411054" lon="15.045293816924417"><ele>12.2</ele><time>2026-04-18T15:45:13Z</time></trkpt><trkpt lat="36.690886227043215" lon="15.045188060872231"><ele>10.8</ele><time>2026-04-18T15:45:15Z</time></trkpt><trkpt lat="36.69083693121438" lon="15.04508577791588"><ele>9.4</ele><time>2026-04-18T15:45:17Z</time></trkpt><trkpt lat="36.690791012547685" lon="15.044979890970474"><ele>8.0</ele><time>2026-04-18T15:45:19Z</time></trkpt><trkpt lat="36.690741455433816" lon="15.044888647456167"><ele>7.999999999999999</ele><time>2026-04-18T15:45:21Z</time></trkpt><trkpt lat="36.6906959428465" lon="15.044798180482024"><ele>8.0</ele><time>2026-04-18T15:45:23Z</time></trkpt><trkpt lat="36.690657987050045" lon="15.044702721635582"><ele>8.0</ele><time>2026-04-18T15:45:26Z</time></trkpt><trkpt lat="36.690579765993" lon="15.044687912614549"><ele>8.0</ele><time>2026-04-18T15:45:29Z</time></trkpt><trkpt lat="36.690467744842465" lon="15.044757635187292"><ele>7.999999999999999</ele><time>2026-04-18T15:45:31Z</time></trkpt><trkpt lat="36.69039758373893" lon="15.044781967803702"><ele>8.0</ele><time>2026-04-18T15:45:32Z</time></trkpt><trkpt lat="36.69031774155486" lon="15.0448218234568"><ele>7.0</ele><time>2026-04-18T15:45:33Z</time></trkpt><trkpt lat="36.69021973863775" lon="15.044855108247807"><ele>6.000000000000001</ele><time>2026-04-18T15:45:35Z</time></trkpt><trkpt lat="36.69014493031559" lon="15.044910869043123"><ele>5.0</ele><time>2026-04-18T15:45:37Z</time></trkpt><trkpt lat="36.69009916158859" lon="15.044825080003857"><ele>4.0</ele><time>2026-04-18T15:45:42Z</time></trkpt><trkpt lat="36.69008977618825" lon="15.044723478013276"><ele>3.0</ele><time>2026-04-18T15:45:43Z</time></trkpt><trkpt lat="36.690079155223" lon="15.044587614183627"><ele>3.0</ele><time>2026-04-18T15:45:44Z</time></trkpt><trkpt lat="36.69007156436946" lon="15.044425103044867"><ele>3.0</ele><time>2026-04-18T15:45:45Z</time></trkpt><trkpt lat="36.690060680666306" lon="15.044258304222948"><ele>3.0</ele><time>2026-04-18T15:45:46Z</time></trkpt><trkpt lat="36.690047613284555" lon="15.044118955339371"><ele>3.0</ele><time>2026-04-18T15:45:47Z</time></trkpt><trkpt lat="36.69002974515039" lon="15.044005529181746"><ele>3.0</ele><time>2026-04-18T15:45:48Z</time></trkpt><trkpt lat="36.69000852455499" lon="15.043915602406372"><ele>3.0</ele><time>2026-04-18T15:45:49Z</time></trkpt><trkpt lat="36.6899948186111" lon="15.043835277960781"><ele>3.0</ele><time>2026-04-18T15:45:50Z</time></trkpt><trkpt lat="36.689910177405054" lon="15.043761860810186"><ele>3.0</ele><time>2026-04-18T15:45:52Z</time></trkpt><trkpt lat="36.6898487499299" lon="15.0437072778424"><ele>3.0</ele><time>2026-04-18T15:45:53Z</time></trkpt><trkpt lat="36.689776891139616" lon="15.043554309977004"><ele>3.0</ele><time>2026-04-18T15:45:55Z</time></trkpt><trkpt lat="36.689713351048525" lon="15.04347303247696"><ele>3.0</ele><time>2026-04-18T15:45:56.999Z</time></trkpt><trkpt lat="36.689710932597926" lon="15.043394551615203"><ele>3.0</ele><time>2026-04-18T15:45:57.999Z</time></trkpt><trkpt lat="36.68970264407893" lon="15.043303637308384"><ele>3.0</ele><time>2026-04-18T15:45:58.999Z</time></trkpt><trkpt lat="36.689701307487525" lon="15.043202468758407"><ele>3.0</ele><time>2026-04-18T15:45:59.999Z</time></trkpt><trkpt lat="36.6896997622608" lon="15.043090845643988"><ele>3.0</ele><time>2026-04-18T15:46:00.999Z</time></trkpt><trkpt lat="36.689696317625526" lon="15.042998073031143"><ele>3.0</ele><time>2026-04-18T15:46:01.999Z</time></trkpt><trkpt lat="36.68966785522129" lon="15.042907033876595"><ele>3.0</ele><time>2026-04-18T15:46:03.999Z</time></trkpt><trkpt lat="36.68957270115469" lon="15.042803817760223"><ele>3.0</ele><time>2026-04-18T15:46:05.999Z</time></trkpt><trkpt lat="36.68949404990766" lon="15.04273559305466"><ele>3.0</ele><time>2026-04-18T15:46:06.999Z</time></trkpt><trkpt lat="36.689426169073535" lon="15.042667886644589"><ele>3.0</ele><time>2026-04-18T15:46:07.999Z</time></trkpt><trkpt lat="36.68937509069102" lon="15.04260276712198"><ele>3.0</ele><time>2026-04-18T15:46:08.999Z</time></trkpt><trkpt lat="36.68932711635543" lon="15.042551198659634"><ele>3.0</ele><time>2026-04-18T15:46:09.999Z</time></trkpt><trkpt lat="36.689265394906315" lon="15.042481827407297"><ele>3.0</ele><time>2026-04-18T15:46:11.999Z</time></trkpt><trkpt lat="36.68920392052832" lon="15.042458615993752"><ele>3.0</ele><time>2026-04-18T15:46:14.999Z</time></trkpt><trkpt lat="36.68913182116992" lon="15.04240250285311"><ele>3.0</ele><time>2026-04-18T15:46:17.999Z</time></trkpt><trkpt lat="36.6890446398411" lon="15.042387895763417"><ele>3.0</ele><time>2026-04-18T15:46:19.999Z</time></trkpt><trkpt lat="36.688944030188516" lon="15.042482453549644"><ele>2.5</ele><time>2026-04-18T15:46:21.999Z</time></trkpt><trkpt lat="36.68888274609934" lon="15.042599403598171"><ele>2.0</ele><time>2026-04-18T15:46:22.999Z</time></trkpt><trkpt lat="36.688804113082725" lon="15.042736253339612"><ele>1.5</ele><time>2026-04-18T15:46:23.999Z</time></trkpt><trkpt lat="36.68872520205391" lon="15.042842004626626"><ele>1.0</ele><time>2026-04-18T15:46:24.999Z</time></trkpt><trkpt lat="36.68864412742526" lon="15.042950532663266"><ele>0.9999999999999999</ele><time>2026-04-18T15:46:25.999Z</time></trkpt><trkpt lat="36.688587574079584" lon="15.043054119011632"><ele>1.0</ele><time>2026-04-18T15:46:26.999Z</time></trkpt><trkpt lat="36.6885379508164" lon="15.04314208523093"><ele>1.0</ele><time>2026-04-18T15:46:27.999Z</time></trkpt><trkpt lat="36.68848889921418" lon="15.043201537282068"><ele>1.0</ele><time>2026-04-18T15:46:28.999Z</time></trkpt><trkpt lat="36.688439143906834" lon="15.043262732837517"><ele>0.9999999999999999</ele><time>2026-04-18T15:46:29.999Z</time></trkpt><trkpt lat="36.68838608690233" lon="15.043321626455244"><ele>1.0</ele><time>2026-04-18T15:46:30.999Z</time></trkpt><trkpt lat="36.68832682435166" lon="15.043383322563026"><ele>1.0</ele><time>2026-04-18T15:46:31.999Z</time></trkpt><trkpt lat="36.688260429475" lon="15.043447904345802"><ele>1.0</ele><time>2026-04-18T15:46:32.999Z</time></trkpt><trkpt lat="36.688194947810516" lon="15.043530122284762"><ele>1.0</ele><time>2026-04-18T15:46:33.999Z</time></trkpt><trkpt lat="36.688125971335495" lon="15.043625803080905"><ele>1.0</ele><time>2026-04-18T15:46:34.999Z</time></trkpt><trkpt lat="36.68807427151676" lon="15.043726470350991"><ele>1.0</ele><time>2026-04-18T15:46:35.999Z</time></trkpt><trkpt lat="36.68798839615993" lon="15.043845429987602"><ele>1.0</ele><time>2026-04-18T15:46:36.999Z</time></trkpt><trkpt lat="36.68790292505995" lon="15.043955611995177"><ele>1.0</ele><time>2026-04-18T15:46:37.999Z</time></trkpt><trkpt lat="36.68780942321752" lon="15.044084953876522"><ele>1.0</ele><time>2026-04-18T15:46:38.999Z</time></trkpt><trkpt lat="36.68768453547109" lon="15.044189510049122"><ele>1.0</ele><time>2026-04-18T15:46:39.999Z</time></trkpt><trkpt lat="36.68756416124796" lon="15.04431840584939"><ele>1.25</ele><time>2026-04-18T15:46:40.999Z</time></trkpt><trkpt lat="36.687462595965805" lon="15.044401617463954"><ele>1.5</ele><time>2026-04-18T15:46:41.999Z</time></trkpt><trkpt lat="36.68735395539431" lon="15.04448199551244"><ele>1.75</ele><time>2026-04-18T15:46:42.999Z</time></trkpt><trkpt lat="36.687269769145985" lon="15.04462439492397"><ele>2.0</ele><time>2026-04-18T15:46:43.999Z</time></trkpt><trkpt lat="36.687170015353686" lon="15.044750021541976"><ele>2.0</ele><time>2026-04-18T15:46:44.999Z</time></trkpt><trkpt lat="36.68705750632862" lon="15.044843271053205"><ele>2.0</ele><time>2026-04-18T15:46:45.999Z</time></trkpt><trkpt lat="36.68695274276951" lon="15.044949705611591"><ele>2.0</ele><time>2026-04-18T15:46:46.999Z</time></trkpt><trkpt lat="36.6868713334313" lon="15.045055821402858"><ele>2.0</ele><time>2026-04-18T15:46:47.999Z</time></trkpt><trkpt lat="36.68675640340525" lon="15.045154257973723"><ele>1.75</ele><time>2026-04-18T15:46:48.999Z</time></trkpt><trkpt lat="36.68664853897184" lon="15.045252356200907"><ele>1.5</ele><time>2026-04-18T15:46:49.999Z</time></trkpt><trkpt lat="36.686536310203664" lon="15.045349255730667"><ele>1.25</ele><time>2026-04-18T15:46:50.999Z</time></trkpt><trkpt lat="36.68642492572546" lon="15.045442487442164"><ele>1.0</ele><time>2026-04-18T15:46:51.999Z</time></trkpt><trkpt lat="36.686298079653966" lon="15.045557614757389"><ele>1.0</ele><time>2026-04-18T15:46:52.999Z</time></trkpt><trkpt lat="36.686150102037395" lon="15.045672048811376"><ele>1.0</ele><time>2026-04-18T15:46:53.999Z</time></trkpt><trkpt lat="36.68599420559554" lon="15.045810826161377"><ele>1.0</ele><time>2026-04-18T15:46:54.999Z</time></trkpt><trkpt lat="36.685931416874396" lon="15.045908997241266"><ele>1.6666666666666665</ele><time>2026-04-18T15:46:55.999Z</time></trkpt><trkpt lat="36.68580736049864" lon="15.046023369838831"><ele>2.3333333333333335</ele><time>2026-04-18T15:46:56.999Z</time></trkpt><trkpt lat="36.68568265633541" lon="15.046152278152732"><ele>3.0</ele><time>2026-04-18T15:46:57.999Z</time></trkpt><trkpt lat="36.685550684944864" lon="15.046283212542464"><ele>3.0</ele><time>2026-04-18T15:46:58.999Z</time></trkpt><trkpt lat="36.68541899705706" lon="15.046408852743573"><ele>3.0</ele><time>2026-04-18T15:46:59.999Z</time></trkpt><trkpt lat="36.68527962415982" lon="15.046542162278696"><ele>3.0</ele><time>2026-04-18T15:47:00.999Z</time></trkpt><trkpt lat="36.68514335087685" lon="15.04667023804949"><ele>2.0</ele><time>2026-04-18T15:47:01.999Z</time></trkpt><trkpt lat="36.685013648654056" lon="15.046813113546404"><ele>1.0</ele><time>2026-04-18T15:47:02.999Z</time></trkpt><trkpt lat="36.68486480662854" lon="15.04692960151012"><ele>0.0</ele><time>2026-04-18T15:47:03.999Z</time></trkpt><trkpt lat="36.68472549494566" lon="15.047061172467384"><ele>0.0</ele><time>2026-04-18T15:47:04.999Z</time></trkpt><trkpt lat="36.68458898949831" lon="15.04718317557913"><ele>0.0</ele><time>2026-04-18T15:47:05.999Z</time></trkpt><trkpt lat="36.68445229808293" lon="15.047313965223402"><ele>0.0</ele><time>2026-04-18T15:47:06.999Z</time></trkpt><trkpt lat="36.684309980459005" lon="15.047436061531037"><ele>0.3333333333333333</ele><time>2026-04-18T15:47:08Z</time></trkpt><trkpt lat="36.684146953867" lon="15.047528995948959"><ele>0.6666666666666666</ele><time>2026-04-18T15:47:09Z</time></trkpt><trkpt lat="36.684024370116354" lon="15.047655660388799"><ele>1.0</ele><time>2026-04-18T15:47:10Z</time></trkpt><trkpt lat="36.68390763325987" lon="15.047762132657773"><ele>1.0</ele><time>2026-04-18T15:47:11Z</time></trkpt><trkpt lat="36.6837804658025" lon="15.04787141209267"><ele>1.0</ele><time>2026-04-18T15:47:12Z</time></trkpt><trkpt lat="36.683653586270474" lon="15.047982281980545"><ele>1.0</ele><time>2026-04-18T15:47:13Z</time></trkpt><trkpt lat="36.68351967271938" lon="15.048085928715246"><ele>1.0</ele><time>2026-04-18T15:47:14Z</time></trkpt><trkpt lat="36.683381059320325" lon="15.048186401327579"><ele>1.0</ele><time>2026-04-18T15:47:15Z</time></trkpt><trkpt lat="36.68324075067988" lon="15.048288562605094"><ele>1.0</ele><time>2026-04-18T15:47:16Z</time></trkpt><trkpt lat="36.68311772142954" lon="15.048378015476926"><ele>1.0</ele><time>2026-04-18T15:47:17Z</time></trkpt><trkpt lat="36.68293764897825" lon="15.04848665069574"><ele>1.0</ele><time>2026-04-18T15:47:18Z</time></trkpt><trkpt lat="36.682844445090446" lon="15.048589962738061"><ele>1.0</ele><time>2026-04-18T15:47:19Z</time></trkpt><trkpt lat="36.68270380179691" lon="15.048692652677321"><ele>0.6666666666666666</ele><time>2026-04-18T15:47:20Z</time></trkpt><trkpt lat="36.68256570518896" lon="15.048797574600332"><ele>0.3333333333333333</ele><time>2026-04-18T15:47:21Z</time></trkpt><trkpt lat="36.68242698107882" lon="15.048908155877886"><ele>0.0</ele><time>2026-04-18T15:47:22Z</time></trkpt><trkpt lat="36.682293611019865" lon="15.049017856589307"><ele>0.0</ele><time>2026-04-18T15:47:23Z</time></trkpt><trkpt lat="36.68215180426254" lon="15.049125786504979"><ele>0.0</ele><time>2026-04-18T15:47:24Z</time></trkpt><trkpt lat="36.68200889101392" lon="15.049225281336785"><ele>0.0</ele><time>2026-04-18T15:47:25Z</time></trkpt><trkpt lat="36.6818746532207" lon="15.049331269761346"><ele>0.25</ele><time>2026-04-18T15:47:26Z</time></trkpt><trkpt lat="36.681739102992644" lon="15.04944865664988"><ele>0.5</ele><time>2026-04-18T15:47:27Z</time></trkpt><trkpt lat="36.681609704019074" lon="15.049547215566037"><ele>0.75</ele><time>2026-04-18T15:47:28Z</time></trkpt><trkpt lat="36.68150061760001" lon="15.049635926241878"><ele>1.0</ele><time>2026-04-18T15:47:29Z</time></trkpt><trkpt lat="36.68139640268938" lon="15.049738322654465"><ele>1.0</ele><time>2026-04-18T15:47:30Z</time></trkpt><trkpt lat="36.681281091115046" lon="15.049842045032346"><ele>1.0</ele><time>2026-04-18T15:47:31Z</time></trkpt><trkpt lat="36.681174553420874" lon="15.049922758171213"><ele>1.0</ele><time>2026-04-18T15:47:32Z</time></trkpt><trkpt lat="36.68106314968943" lon="15.050008449065631"><ele>1.0</ele><time>2026-04-18T15:47:33Z</time></trkpt><trkpt lat="36.680954474266095" lon="15.050091287028364"><ele>1.25</ele><time>2026-04-18T15:47:34Z</time></trkpt><trkpt lat="36.68084941481417" lon="15.050178303723154"><ele>1.5</ele><time>2026-04-18T15:47:35Z</time></trkpt><trkpt lat="36.6807396200269" lon="15.050262887839757"><ele>1.75</ele><time>2026-04-18T15:47:36Z</time></trkpt><trkpt lat="36.68063122909026" lon="15.050349329357774"><ele>2.0</ele><time>2026-04-18T15:47:37Z</time></trkpt><trkpt lat="36.680520599165966" lon="15.05044094638986"><ele>2.0</ele><time>2026-04-18T15:47:38Z</time></trkpt><trkpt lat="36.6803964539181" lon="15.050523993186978"><ele>2.0</ele><time>2026-04-18T15:47:39Z</time></trkpt><trkpt lat="36.68028541247588" lon="15.050611006774998"><ele>2.0</ele><time>2026-04-18T15:47:40Z</time></trkpt><trkpt lat="36.680172655137326" lon="15.05070355275848"><ele>2.0</ele><time>2026-04-18T15:47:41Z</time></trkpt><trkpt lat="36.68012384294355" lon="15.050938364095257"><ele>2.0</ele><time>2026-04-18T15:47:42Z</time></trkpt><trkpt lat="36.68000427872291" lon="15.051025187926331"><ele>2.0</ele><time>2026-04-18T15:47:43Z</time></trkpt><trkpt lat="36.679886638641825" lon="15.051111966774823"><ele>2.0</ele><time>2026-04-18T15:47:44Z</time></trkpt><trkpt lat="36.67976692020966" lon="15.051200139221205"><ele>2.0</ele><time>2026-04-18T15:47:45Z</time></trkpt><trkpt lat="36.679647915254336" lon="15.051290466604076"><ele>2.0</ele><time>2026-04-18T15:47:46Z</time></trkpt><trkpt lat="36.6795333586015" lon="15.051383434991592"><ele>2.0</ele><time>2026-04-18T15:47:47Z</time></trkpt><trkpt lat="36.67940995683167" lon="15.051482776318334"><ele>2.0</ele><time>2026-04-18T15:47:48Z</time></trkpt><trkpt lat="36.67928907438307" lon="15.051570227346048"><ele>2.0</ele><time>2026-04-18T15:47:49Z</time></trkpt><trkpt lat="36.67916261970136" lon="15.05165087173404"><ele>2.0</ele><time>2026-04-18T15:47:50Z</time></trkpt><trkpt lat="36.67904235751434" lon="15.051720433564189"><ele>2.0</ele><time>2026-04-18T15:47:51Z</time></trkpt><trkpt lat="36.67892950358174" lon="15.051804219975061"><ele>2.0</ele><time>2026-04-18T15:47:52Z</time></trkpt><trkpt lat="36.67881144840407" lon="15.05189445661451"><ele>2.0</ele><time>2026-04-18T15:47:53Z</time></trkpt><trkpt lat="36.678694445915305" lon="15.051983888638999"><ele>2.0</ele><time>2026-04-18T15:47:54Z</time></trkpt><trkpt lat="36.67857744445446" lon="15.052073319873692"><ele>2.0</ele><time>2026-04-18T15:47:55Z</time></trkpt><trkpt lat="36.6784622945358" lon="15.052165374389713"><ele>2.0</ele><time>2026-04-18T15:47:56Z</time></trkpt><trkpt lat="36.678262204926064" lon="15.052259178822684"><ele>2.0</ele><time>2026-04-18T15:47:57Z</time></trkpt><trkpt lat="36.67814133572066" lon="15.052242506592703"><ele>2.0</ele><time>2026-04-18T15:47:58Z</time></trkpt><trkpt lat="36.67803883515019" lon="15.052291564994652"><ele>2.0</ele><time>2026-04-18T15:47:59Z</time></trkpt><trkpt lat="36.67791094927324" lon="15.052374109132083"><ele>2.0</ele><time>2026-04-18T15:48:00Z</time></trkpt><trkpt lat="36.67776198001075" lon="15.05244001013604"><ele>2.0</ele><time>2026-04-18T15:48:01Z</time></trkpt><trkpt lat="36.67763458327298" lon="15.052477746561694"><ele>2.0</ele><time>2026-04-18T15:48:02Z</time></trkpt><trkpt lat="36.67753400934476" lon="15.052503602504109"><ele>2.0</ele><time>2026-04-18T15:48:03Z</time></trkpt><trkpt lat="36.67742772446928" lon="15.052530926612649"><ele>2.0</ele><time>2026-04-18T15:48:04Z</time></trkpt><trkpt lat="36.67733857687614" lon="15.052554901820182"><ele>2.0</ele><time>2026-04-18T15:48:05Z</time></trkpt><trkpt lat="36.67725522647754" lon="15.052585302159"><ele>2.0</ele><time>2026-04-18T15:48:05.999Z</time></trkpt><trkpt lat="36.67717127553036" lon="15.052624160051552"><ele>2.0</ele><time>2026-04-18T15:48:06.999Z</time></trkpt><trkpt lat="36.67710100692248" lon="15.052674209194675"><ele>2.0</ele><time>2026-04-18T15:48:07.999Z</time></trkpt><trkpt lat="36.677012172671645" lon="15.052727262151144"><ele>2.0</ele><time>2026-04-18T15:48:08.999Z</time></trkpt><trkpt lat="36.67689431019078" lon="15.052777333679547"><ele>2.0</ele><time>2026-04-18T15:48:09.999Z</time></trkpt><trkpt lat="36.676749948343016" lon="15.052807027430102"><ele>2.2</ele><time>2026-04-18T15:48:10.999Z</time></trkpt><trkpt lat="36.67663131443489" lon="15.052817110544918"><ele>2.4000000000000004</ele><time>2026-04-18T15:48:11.999Z</time></trkpt><trkpt lat="36.67654978487656" lon="15.052821338544856"><ele>2.5999999999999996</ele><time>2026-04-18T15:48:12.999Z</time></trkpt><trkpt lat="36.67646947764762" lon="15.05282177718516"><ele>2.8</ele><time>2026-04-18T15:48:13.999Z</time></trkpt><trkpt lat="36.67639006466438" lon="15.052817146280473"><ele>3.0</ele><time>2026-04-18T15:48:14.999Z</time></trkpt><trkpt lat="36.6762902366856" lon="15.052797881696911"><ele>3.0</ele><time>2026-04-18T15:48:16.999Z</time></trkpt><trkpt lat="36.676196790825834" lon="15.052792007104529"><ele>3.0</ele><time>2026-04-18T15:48:18.999Z</time></trkpt><trkpt lat="36.676115619132965" lon="15.052796994128835"><ele>3.0</ele><time>2026-04-18T15:48:21.999Z</time></trkpt><trkpt lat="36.67602024394071" lon="15.052718655859238"><ele>3.0</ele><time>2026-04-18T15:48:23.999Z</time></trkpt><trkpt lat="36.67593746871755" lon="15.052692687513494"><ele>3.0</ele><time>2026-04-18T15:48:24.999Z</time></trkpt><trkpt lat="36.67584528755906" lon="15.05267758066232"><ele>2.75</ele><time>2026-04-18T15:48:25.999Z</time></trkpt><trkpt lat="36.67574296586218" lon="15.052643135594382"><ele>2.5</ele><time>2026-04-18T15:48:26.999Z</time></trkpt><trkpt lat="36.67562699080723" lon="15.05262345581451"><ele>2.25</ele><time>2026-04-18T15:48:27.999Z</time></trkpt><trkpt lat="36.675504267550544" lon="15.052614653412265"><ele>2.0</ele><time>2026-04-18T15:48:28.999Z</time></trkpt><trkpt lat="36.675372921201046" lon="15.052630514093416"><ele>2.5</ele><time>2026-04-18T15:48:29.999Z</time></trkpt><trkpt lat="36.67523557651293" lon="15.052674493776417"><ele>3.0</ele><time>2026-04-18T15:48:30.999Z</time></trkpt><trkpt lat="36.6750860084934" lon="15.052706946604273"><ele>3.5</ele><time>2026-04-18T15:48:31.999Z</time></trkpt><trkpt lat="36.67494650769358" lon="15.052754084768804"><ele>4.0</ele><time>2026-04-18T15:48:32.999Z</time></trkpt><trkpt lat="36.67480505749963" lon="15.052801436306325"><ele>4.0</ele><time>2026-04-18T15:48:33.999Z</time></trkpt><trkpt lat="36.67466532785567" lon="15.05286531460416"><ele>4.0</ele><time>2026-04-18T15:48:34.999Z</time></trkpt><trkpt lat="36.67451758542412" lon="15.05289770793607"><ele>4.0</ele><time>2026-04-18T15:48:35.999Z</time></trkpt><trkpt lat="36.674377184291224" lon="15.05291833431568"><ele>4.0</ele><time>2026-04-18T15:48:36.999Z</time></trkpt><trkpt lat="36.67425179300279" lon="15.05290007508531"><ele>3.75</ele><time>2026-04-18T15:48:37.999Z</time></trkpt><trkpt lat="36.67413535810565" lon="15.052918267053451"><ele>3.5</ele><time>2026-04-18T15:48:38.999Z</time></trkpt><trkpt lat="36.67401098811395" lon="15.052962757392919"><ele>3.25</ele><time>2026-04-18T15:48:39.999Z</time></trkpt><trkpt lat="36.67388256463767" lon="15.053036042606472"><ele>3.0</ele><time>2026-04-18T15:48:40.999Z</time></trkpt><trkpt lat="36.67375099961218" lon="15.05310831965402"><ele>3.0</ele><time>2026-04-18T15:48:41.999Z</time></trkpt><trkpt lat="36.67361431357779" lon="15.053186083523228"><ele>3.0</ele><time>2026-04-18T15:48:42.999Z</time></trkpt><trkpt lat="36.673479442020756" lon="15.05326394036462"><ele>3.0</ele><time>2026-04-18T15:48:43.999Z</time></trkpt><trkpt lat="36.673359480476215" lon="15.053330081582954"><ele>3.0</ele><time>2026-04-18T15:48:44.999Z</time></trkpt><trkpt lat="36.6732526114406" lon="15.053386511720744"><ele>3.4</ele><time>2026-04-18T15:48:45.999Z</time></trkpt><trkpt lat="36.67315746941794" lon="15.053441164826648"><ele>3.8</ele><time>2026-04-18T15:48:46.999Z</time></trkpt><trkpt lat="36.67307035867778" lon="15.053483607881214"><ele>4.2</ele><time>2026-04-18T15:48:47.999Z</time></trkpt><trkpt lat="36.672968180056365" lon="15.053512503998167"><ele>4.6</ele><time>2026-04-18T15:48:48.999Z</time></trkpt><trkpt lat="36.672876675853054" lon="15.053449026277288"><ele>5.0</ele><time>2026-04-18T15:48:49.999Z</time></trkpt><trkpt lat="36.672760519734055" lon="15.053417239665116"><ele>5.0</ele><time>2026-04-18T15:48:50.999Z</time></trkpt><trkpt lat="36.67262927566864" lon="15.053382600532151"><ele>5.0</ele><time>2026-04-18T15:48:51.999Z</time></trkpt><trkpt lat="36.67245883471423" lon="15.053403569255442"><ele>5.0</ele><time>2026-04-18T15:48:52.999Z</time></trkpt><trkpt lat="36.672272979342836" lon="15.053401230942482"><ele>5.0</ele><time>2026-04-18T15:48:53.999Z</time></trkpt><trkpt lat="36.67210003141175" lon="15.053412810257006"><ele>5.0</ele><time>2026-04-18T15:48:54.999Z</time></trkpt><trkpt lat="36.671955731457246" lon="15.053402323798492"><ele>5.0</ele><time>2026-04-18T15:48:55.999Z</time></trkpt><trkpt lat="36.67183695636522" lon="15.053412367812157"><ele>5.0</ele><time>2026-04-18T15:48:56.999Z</time></trkpt><trkpt lat="36.67173301659143" lon="15.05347378509424"><ele>4.5</ele><time>2026-04-18T15:48:57.999Z</time></trkpt><trkpt lat="36.67163270290848" lon="15.053544162934664"><ele>4.0</ele><time>2026-04-18T15:48:58.999Z</time></trkpt><trkpt lat="36.67156612188772" lon="15.053678694024983"><ele>3.5</ele><time>2026-04-18T15:48:59.999Z</time></trkpt><trkpt lat="36.67148062141738" lon="15.05382142916235"><ele>3.0</ele><time>2026-04-18T15:49:00.999Z</time></trkpt><trkpt lat="36.6714081212288" lon="15.053988848599372"><ele>4.333333333333334</ele><time>2026-04-18T15:49:01.999Z</time></trkpt><trkpt lat="36.671314844028075" lon="15.054193527816317"><ele>5.666666666666667</ele><time>2026-04-18T15:49:02.999Z</time></trkpt><trkpt lat="36.671215103738575" lon="15.054404460640544"><ele>7.0</ele><time>2026-04-18T15:49:03.999Z</time></trkpt><trkpt lat="36.671173398766946" lon="15.05455153064841"><ele>7.0</ele><time>2026-04-18T15:49:04.999Z</time></trkpt><trkpt lat="36.67114008634246" lon="15.054686664355653"><ele>7.0</ele><time>2026-04-18T15:49:05.999Z</time></trkpt><trkpt lat="36.67110891689515" lon="15.054824618979227"><ele>7.0</ele><time>2026-04-18T15:49:06.999Z</time></trkpt><trkpt lat="36.671052845214135" lon="15.055014446633614"><ele>7.0</ele><time>2026-04-18T15:49:07.999Z</time></trkpt><trkpt lat="36.670987820633776" lon="15.055111240211495"><ele>7.8</ele><time>2026-04-18T15:49:08.999Z</time></trkpt><trkpt lat="36.67093129005301" lon="15.055197780161627"><ele>8.6</ele><time>2026-04-18T15:49:09.999Z</time></trkpt><trkpt lat="36.67088646373209" lon="15.055267959317794"><ele>9.4</ele><time>2026-04-18T15:49:10.999Z</time></trkpt><trkpt lat="36.670877981160885" lon="15.055358834186224"><ele>10.200000000000001</ele><time>2026-04-18T15:49:12.999Z</time></trkpt><trkpt lat="36.67081606395821" lon="15.055374111394372"><ele>11.0</ele><time>2026-04-18T15:49:23Z</time></trkpt><trkpt lat="36.670661303966206" lon="15.055302536508377"><ele>11.0</ele><time>2026-04-18T15:49:24Z</time></trkpt><trkpt lat="36.670551524823736" lon="15.055303109290106"><ele>11.0</ele><time>2026-04-18T15:49:25Z</time></trkpt><trkpt lat="36.6704446506504" lon="15.05530158686328"><ele>11.0</ele><time>2026-04-18T15:49:26Z</time></trkpt><trkpt lat="36.67033241072641" lon="15.055314812836917"><ele>11.0</ele><time>2026-04-18T15:49:27Z</time></trkpt><trkpt lat="36.67023433048903" lon="15.055317774016297"><ele>11.0</ele><time>2026-04-18T15:49:28Z</time></trkpt><trkpt lat="36.67014436277911" lon="15.055315087769811"><ele>11.4</ele><time>2026-04-18T15:49:29Z</time></trkpt><trkpt lat="36.67005450299618" lon="15.055313720245522"><ele>11.8</ele><time>2026-04-18T15:49:30Z</time></trkpt><trkpt lat="36.669968330070134" lon="15.05531103848665"><ele>12.200000000000001</ele><time>2026-04-18T15:49:31Z</time></trkpt><trkpt lat="36.66988614880947" lon="15.055324100842121"><ele>12.600000000000001</ele><time>2026-04-18T15:49:32Z</time></trkpt><trkpt lat="36.66977365949782" lon="15.055314619699892"><ele>13.0</ele><time>2026-04-18T15:49:33Z</time></trkpt><trkpt lat="36.669658274502254" lon="15.055318204893863"><ele>13.0</ele><time>2026-04-18T15:49:34Z</time></trkpt><trkpt lat="36.66954871076748" lon="15.055333352332715"><ele>13.0</ele><time>2026-04-18T15:49:35Z</time></trkpt><trkpt lat="36.669445240477216" lon="15.055334028891929"><ele>13.0</ele><time>2026-04-18T15:49:36Z</time></trkpt><trkpt lat="36.66935453894583" lon="15.055345246540828"><ele>13.0</ele><time>2026-04-18T15:49:37Z</time></trkpt><trkpt lat="36.66925529283488" lon="15.05534500070958"><ele>13.0</ele><time>2026-04-18T15:49:38Z</time></trkpt><trkpt lat="36.66915934169307" lon="15.055352213605135"><ele>13.166666666666666</ele><time>2026-04-18T15:49:39Z</time></trkpt><trkpt lat="36.66907516699481" lon="15.055350630049144"><ele>13.333333333333332</ele><time>2026-04-18T15:49:40Z</time></trkpt><trkpt lat="36.66900642600748" lon="15.055340795115189"><ele>13.5</ele><time>2026-04-18T15:49:41Z</time></trkpt><trkpt lat="36.6689395364552" lon="15.055330805958844"><ele>13.666666666666668</ele><time>2026-04-18T15:49:42Z</time></trkpt><trkpt lat="36.668809382652455" lon="15.05535705226687"><ele>13.833333333333334</ele><time>2026-04-18T15:49:44Z</time></trkpt><trkpt lat="36.66874768458814" lon="15.055401678577754"><ele>14.0</ele><time>2026-04-18T15:49:45Z</time></trkpt><trkpt lat="36.66869835446649" lon="15.055463211934226"><ele>14.0</ele><time>2026-04-18T15:49:46Z</time></trkpt><trkpt lat="36.66864800184003" lon="15.05554906581234"><ele>13.999999999999998</ele><time>2026-04-18T15:49:47Z</time></trkpt><trkpt lat="36.668584921056706" lon="15.05563849385967"><ele>13.999999999999998</ele><time>2026-04-18T15:49:48Z</time></trkpt><trkpt lat="36.6685172336738" lon="15.05573702193229"><ele>14.0</ele><time>2026-04-18T15:49:49Z</time></trkpt><trkpt lat="36.668458599752576" lon="15.055840047366658"><ele>14.0</ele><time>2026-04-18T15:49:50Z</time></trkpt><trkpt lat="36.66841554301097" lon="15.055927961520021"><ele>13.2</ele><time>2026-04-18T15:49:51Z</time></trkpt><trkpt lat="36.668370520534836" lon="15.056017378431394"><ele>12.399999999999999</ele><time>2026-04-18T15:49:52Z</time></trkpt><trkpt lat="36.668322238825766" lon="15.056104043140992"><ele>11.6</ele><time>2026-04-18T15:49:53Z</time></trkpt><trkpt lat="36.668258603645796" lon="15.05620352505369"><ele>10.8</ele><time>2026-04-18T15:49:54Z</time></trkpt><trkpt lat="36.668197102269616" lon="15.05629275611398"><ele>10.0</ele><time>2026-04-18T15:49:55Z</time></trkpt><trkpt lat="36.6681388163005" lon="15.056388478007644"><ele>10.0</ele><time>2026-04-18T15:49:56Z</time></trkpt><trkpt lat="36.66807221496562" lon="15.05648741571463"><ele>10.0</ele><time>2026-04-18T15:49:57Z</time></trkpt><trkpt lat="36.66800599917902" lon="15.056575589060792"><ele>10.0</ele><time>2026-04-18T15:49:58Z</time></trkpt><trkpt lat="36.66794918188175" lon="15.056651985588577"><ele>10.0</ele><time>2026-04-18T15:49:59Z</time></trkpt><trkpt lat="36.66786728769068" lon="15.05669667669327"><ele>10.0</ele><time>2026-04-18T15:50:00Z</time></trkpt><trkpt lat="36.66781628012645" lon="15.056791345220933"><ele>10.0</ele><time>2026-04-18T15:50:01Z</time></trkpt><trkpt lat="36.667761231339306" lon="15.05686110876332"><ele>10.0</ele><time>2026-04-18T15:50:02Z</time></trkpt><trkpt lat="36.667716256361466" lon="15.056953875019648"><ele>10.0</ele><time>2026-04-18T15:50:03Z</time></trkpt><trkpt lat="36.66766369485748" lon="15.057042310212246"><ele>10.0</ele><time>2026-04-18T15:50:04Z</time></trkpt><trkpt lat="36.66764144430147" lon="15.057173828815388"><ele>10.0</ele><time>2026-04-18T15:50:05Z</time></trkpt><trkpt lat="36.66762946843787" lon="15.05729103909868"><ele>10.0</ele><time>2026-04-18T15:50:06Z</time></trkpt><trkpt lat="36.667597872654" lon="15.057400683748863"><ele>10.0</ele><time>2026-04-18T15:50:07Z</time></trkpt><trkpt lat="36.66757234323422" lon="15.057526478346407"><ele>10.0</ele><time>2026-04-18T15:50:08Z</time></trkpt><trkpt lat="36.66756433459819" lon="15.057653106893559"><ele>10.0</ele><time>2026-04-18T15:50:08.999Z</time></trkpt><trkpt lat="36.667548718088206" lon="15.057749353663938"><ele>10.0</ele><time>2026-04-18T15:50:09.999Z</time></trkpt><trkpt lat="36.66754429569438" lon="15.057862045391396"><ele>11.0</ele><time>2026-04-18T15:50:10.999Z</time></trkpt><trkpt lat="36.667566023235686" lon="15.057994780108226"><ele>12.0</ele><time>2026-04-18T15:50:11.999Z</time></trkpt><trkpt lat="36.66757998511654" lon="15.058131545036533"><ele>13.0</ele><time>2026-04-18T15:50:12.999Z</time></trkpt><trkpt lat="36.66759424043857" lon="15.05828159910718"><ele>14.0</ele><time>2026-04-18T15:50:13.999Z</time></trkpt><trkpt lat="36.66758879821617" lon="15.058436151683345"><ele>14.75</ele><time>2026-04-18T15:50:14.999Z</time></trkpt><trkpt lat="36.667596627784064" lon="15.058580068539676"><ele>15.5</ele><time>2026-04-18T15:50:15.999Z</time></trkpt><trkpt lat="36.66760522194533" lon="15.058729127237124"><ele>16.25</ele><time>2026-04-18T15:50:16.999Z</time></trkpt><trkpt lat="36.667613734063565" lon="15.058861230557353"><ele>17.0</ele><time>2026-04-18T15:50:17.999Z</time></trkpt><trkpt lat="36.66762271763442" lon="15.05899542980787"><ele>16.8</ele><time>2026-04-18T15:50:18.999Z</time></trkpt><trkpt lat="36.6676336664775" lon="15.059132368172246"><ele>16.6</ele><time>2026-04-18T15:50:19.999Z</time></trkpt><trkpt lat="36.667654804877316" lon="15.059252737836994"><ele>16.400000000000002</ele><time>2026-04-18T15:50:20.999Z</time></trkpt><trkpt lat="36.66765949594446" lon="15.05936595444471"><ele>16.2</ele><time>2026-04-18T15:50:21.999Z</time></trkpt><trkpt lat="36.66764048741808" lon="15.059461182320396"><ele>16.0</ele><time>2026-04-18T15:50:22.999Z</time></trkpt><trkpt lat="36.667637515938914" lon="15.059551365285328"><ele>16.0</ele><time>2026-04-18T15:50:23.999Z</time></trkpt><trkpt lat="36.66763166069084" lon="15.059630429334964"><ele>16.0</ele><time>2026-04-18T15:50:24.999Z</time></trkpt><trkpt lat="36.6675480486984" lon="15.059723997921518"><ele>16.0</ele><time>2026-04-18T15:50:27.999Z</time></trkpt><trkpt lat="36.66747261632214" lon="15.059716020100957"><ele>16.0</ele><time>2026-04-18T15:50:28.999Z</time></trkpt><trkpt lat="36.6673657689941" lon="15.059720322282372"><ele>16.0</ele><time>2026-04-18T15:50:29.999Z</time></trkpt><trkpt lat="36.66725298094037" lon="15.059747588371641"><ele>16.0</ele><time>2026-04-18T15:50:30.999Z</time></trkpt><trkpt lat="36.66713023769174" lon="15.059748336651154"><ele>16.0</ele><time>2026-04-18T15:50:31.999Z</time></trkpt><trkpt lat="36.667016444663005" lon="15.059758156501378"><ele>16.0</ele><time>2026-04-18T15:50:32.999Z</time></trkpt><trkpt lat="36.66690397186915" lon="15.059762971006412"><ele>16.0</ele><time>2026-04-18T15:50:33.999Z</time></trkpt><trkpt lat="36.66678922427933" lon="15.059749806188243"><ele>15.666666666666666</ele><time>2026-04-18T15:50:34.999Z</time></trkpt><trkpt lat="36.66671109102801" lon="15.05974707342631"><ele>15.333333333333332</ele><time>2026-04-18T15:50:35.999Z</time></trkpt><trkpt lat="36.666629646067406" lon="15.059760798334215"><ele>15.0</ele><time>2026-04-18T15:50:36.999Z</time></trkpt><trkpt lat="36.66654431017063" lon="15.059761317844815"><ele>14.666666666666668</ele><time>2026-04-18T15:50:38.999Z</time></trkpt><trkpt lat="36.66651370627978" lon="15.059665604433624"><ele>14.333333333333334</ele><time>2026-04-18T15:50:45.999Z</time></trkpt><trkpt lat="36.66655019355004" lon="15.059579308298021"><ele>14.0</ele><time>2026-04-18T15:50:46.999Z</time></trkpt><trkpt lat="36.66654427058464" lon="15.05948424954706"><ele>14.0</ele><time>2026-04-18T15:50:49.999Z</time></trkpt><trkpt lat="36.666360889545416" lon="15.059262514681445"><ele>14.0</ele><time>2026-04-18T15:50:54.999Z</time></trkpt><trkpt lat="36.66627007148413" lon="15.059263789818"><ele>14.0</ele><time>2026-04-18T15:50:55.999Z</time></trkpt><trkpt lat="36.66616196640597" lon="15.059265307671536"><ele>13.5</ele><time>2026-04-18T15:50:56.999Z</time></trkpt><trkpt lat="36.6660329236876" lon="15.059267119505906"><ele>13.0</ele><time>2026-04-18T15:50:57.999Z</time></trkpt><trkpt lat="36.66592159552826" lon="15.059268682614796"><ele>12.5</ele><time>2026-04-18T15:50:58.999Z</time></trkpt><trkpt lat="36.66581298345185" lon="15.059270207587444"><ele>12.0</ele><time>2026-04-18T15:50:59.999Z</time></trkpt><trkpt lat="36.665703227754534" lon="15.059272578999042"><ele>12.0</ele><time>2026-04-18T15:51:00.999Z</time></trkpt><trkpt lat="36.66559482288839" lon="15.059275809887213"><ele>12.0</ele><time>2026-04-18T15:51:01.999Z</time></trkpt><trkpt lat="36.66548431658541" lon="15.059279103411248"><ele>12.0</ele><time>2026-04-18T15:51:02.999Z</time></trkpt><trkpt lat="36.66538122513186" lon="15.059282175941455"><ele>12.0</ele><time>2026-04-18T15:51:03.999Z</time></trkpt><trkpt lat="36.66528459932249" lon="15.05928505576846"><ele>12.0</ele><time>2026-04-18T15:51:04.999Z</time></trkpt><trkpt lat="36.6651816043782" lon="15.059288125418123"><ele>11.8</ele><time>2026-04-18T15:51:05.999Z</time></trkpt><trkpt lat="36.66510022729352" lon="15.059290550774072"><ele>11.6</ele><time>2026-04-18T15:51:06.999Z</time></trkpt><trkpt lat="36.66501472265423" lon="15.059293099145343"><ele>11.4</ele><time>2026-04-18T15:51:07.999Z</time></trkpt><trkpt lat="36.66494379928095" lon="15.059525720152864"><ele>11.200000000000001</ele><time>2026-04-18T15:51:08.999Z</time></trkpt><trkpt lat="36.664871777768695" lon="15.059529397509216"><ele>11.0</ele><time>2026-04-18T15:51:09.999Z</time></trkpt><trkpt lat="36.66480134010286" lon="15.05953087758957"><ele>11.0</ele><time>2026-04-18T15:51:10.999Z</time></trkpt><trkpt lat="36.66471812637474" lon="15.059518137520442"><ele>11.0</ele><time>2026-04-18T15:51:11.999Z</time></trkpt><trkpt lat="36.66458226127154" lon="15.059545499696195"><ele>11.0</ele><time>2026-04-18T15:51:13.999Z</time></trkpt><trkpt lat="36.664515392198155" lon="15.059549147027628"><ele>11.0</ele><time>2026-04-18T15:51:14.999Z</time></trkpt><trkpt lat="36.66444378038899" lon="15.059545499776567"><ele>11.0</ele><time>2026-04-18T15:51:15.999Z</time></trkpt><trkpt lat="36.6643103330412" lon="15.059543950429562"><ele>10.833333333333332</ele><time>2026-04-18T15:51:17.999Z</time></trkpt><trkpt lat="36.66424627718401" lon="15.059546331718435"><ele>10.666666666666666</ele><time>2026-04-18T15:51:18.999Z</time></trkpt><trkpt lat="36.66416870809824" lon="15.05954854994797"><ele>10.5</ele><time>2026-04-18T15:51:20Z</time></trkpt><trkpt lat="36.66409011231234" lon="15.059550785538471"><ele>10.333333333333334</ele><time>2026-04-18T15:51:21Z</time></trkpt><trkpt lat="36.66400903065003" lon="15.059553701229195"><ele>10.166666666666668</ele><time>2026-04-18T15:51:22Z</time></trkpt><trkpt lat="36.66393417368969" lon="15.0595562311708"><ele>10.0</ele><time>2026-04-18T15:51:23Z</time></trkpt><trkpt lat="36.66385682274926" lon="15.059558493442166"><ele>10.0</ele><time>2026-04-18T15:51:24Z</time></trkpt><trkpt lat="36.663740222592864" lon="15.059563105087458"><ele>10.0</ele><time>2026-04-18T15:51:26Z</time></trkpt><trkpt lat="36.6636178672567" lon="15.059583681477402"><ele>10.0</ele><time>2026-04-18T15:51:28Z</time></trkpt><trkpt lat="36.66353369835605" lon="15.059566563309417"><ele>10.0</ele><time>2026-04-18T15:51:29Z</time></trkpt><trkpt lat="36.66345986871754" lon="15.05956197431586"><ele>10.0</ele><time>2026-04-18T15:51:30Z</time></trkpt><trkpt lat="36.66338101950404" lon="15.059567353860093"><ele>9.333333333333334</ele><time>2026-04-18T15:51:31Z</time></trkpt><trkpt lat="36.66331350619255" lon="15.059566477126419"><ele>8.666666666666668</ele><time>2026-04-18T15:51:32Z</time></trkpt><trkpt lat="36.66323094755674" lon="15.059565121109971"><ele>8.0</ele><time>2026-04-18T15:51:33Z</time></trkpt><trkpt lat="36.66314135011583" lon="15.05956596211342"><ele>7.333333333333334</ele><time>2026-04-18T15:51:34Z</time></trkpt><trkpt lat="36.66305806575597" lon="15.059573680126928"><ele>6.666666666666667</ele><time>2026-04-18T15:51:35Z</time></trkpt><trkpt lat="36.662943036134095" lon="15.059561166926548"><ele>6.0</ele><time>2026-04-18T15:51:37Z</time></trkpt><trkpt lat="36.66284385810202" lon="15.059564260668365"><ele>6.0</ele><time>2026-04-18T15:51:39Z</time></trkpt><trkpt lat="36.66279867177788" lon="15.059508713959163"><ele>6.0</ele><time>2026-04-18T15:51:41Z</time></trkpt><trkpt lat="36.6627511782191" lon="15.059432453280197"><ele>6.0</ele><time>2026-04-18T15:51:44Z</time></trkpt><trkpt lat="36.66284419070325" lon="15.059522257741081"><ele>6.0</ele><time>2026-04-18T15:54:00Z</time></trkpt><trkpt lat="36.66293361524963" lon="15.059575621802384"><ele>6.0</ele><time>2026-04-18T15:54:02Z</time></trkpt><trkpt lat="36.663003246355714" lon="15.05956168899407"><ele>6.0</ele><time>2026-04-18T15:54:03Z</time></trkpt><trkpt lat="36.663084236857785" lon="15.059553915994176"><ele>6.0</ele><time>2026-04-18T15:54:04Z</time></trkpt><trkpt lat="36.66318719313348" lon="15.059555802765024"><ele>6.0</ele><time>2026-04-18T15:54:05Z</time></trkpt><trkpt lat="36.66329272145559" lon="15.059552844589787"><ele>6.0</ele><time>2026-04-18T15:54:06Z</time></trkpt><trkpt lat="36.66338208888434" lon="15.059553302016697"><ele>6.0</ele><time>2026-04-18T15:54:07Z</time></trkpt><trkpt lat="36.663475199857466" lon="15.059554688996451"><ele>6.0</ele><time>2026-04-18T15:54:08Z</time></trkpt><trkpt lat="36.66357732882246" lon="15.059550790882662"><ele>6.8</ele><time>2026-04-18T15:54:09Z</time></trkpt><trkpt lat="36.663669160695335" lon="15.059549814483809"><ele>7.6</ele><time>2026-04-18T15:54:10Z</time></trkpt><trkpt lat="36.663765575209425" lon="15.059552807625774"><ele>8.4</ele><time>2026-04-18T15:54:11Z</time></trkpt><trkpt lat="36.66386491976829" lon="15.059551145289698"><ele>9.2</ele><time>2026-04-18T15:54:12Z</time></trkpt><trkpt lat="36.66395524592056" lon="15.05954694514378"><ele>10.0</ele><time>2026-04-18T15:54:13Z</time></trkpt><trkpt lat="36.664078497231245" lon="15.059550704910109"><ele>10.0</ele><time>2026-04-18T15:54:14Z</time></trkpt><trkpt lat="36.664197866130564" lon="15.05955802277032"><ele>10.0</ele><time>2026-04-18T15:54:15Z</time></trkpt><trkpt lat="36.664330600567716" lon="15.059545725002453"><ele>10.0</ele><time>2026-04-18T15:54:16Z</time></trkpt><trkpt lat="36.6644631771392" lon="15.059537832922702"><ele>10.0</ele><time>2026-04-18T15:54:17Z</time></trkpt><trkpt lat="36.66458746983183" lon="15.05953292210524"><ele>10.25</ele><time>2026-04-18T15:54:18Z</time></trkpt><trkpt lat="36.66472104244166" lon="15.059534319802871"><ele>10.5</ele><time>2026-04-18T15:54:19Z</time></trkpt><trkpt lat="36.66484330313191" lon="15.059535086220345"><ele>10.75</ele><time>2026-04-18T15:54:20Z</time></trkpt><trkpt lat="36.66496571232388" lon="15.05953604669717"><ele>11.0</ele><time>2026-04-18T15:54:21Z</time></trkpt><trkpt lat="36.66508958123369" lon="15.059530789128555"><ele>11.0</ele><time>2026-04-18T15:54:22Z</time></trkpt><trkpt lat="36.66521381242807" lon="15.059530235646518"><ele>11.0</ele><time>2026-04-18T15:54:23Z</time></trkpt><trkpt lat="36.66534581392485" lon="15.059524031949937"><ele>11.0</ele><time>2026-04-18T15:54:24Z</time></trkpt><trkpt lat="36.665477043353896" lon="15.059523115663143"><ele>11.0</ele><time>2026-04-18T15:54:25Z</time></trkpt><trkpt lat="36.66561337544953" lon="15.059522973874905"><ele>11.25</ele><time>2026-04-18T15:54:26Z</time></trkpt><trkpt lat="36.665757655073286" lon="15.059518182688043"><ele>11.5</ele><time>2026-04-18T15:54:26.999Z</time></trkpt><trkpt lat="36.66587181104894" lon="15.05951527074059"><ele>11.75</ele><time>2026-04-18T15:54:27.999Z</time></trkpt><trkpt lat="36.665992766469266" lon="15.05950857685238"><ele>12.0</ele><time>2026-04-18T15:54:28.999Z</time></trkpt><trkpt lat="36.66611055387098" lon="15.059501121912502"><ele>12.399999999999999</ele><time>2026-04-18T15:54:29.999Z</time></trkpt><trkpt lat="36.6662619928251" lon="15.059494120489475"><ele>12.799999999999999</ele><time>2026-04-18T15:54:30.999Z</time></trkpt><trkpt lat="36.666394629192034" lon="15.059493413992994"><ele>13.2</ele><time>2026-04-18T15:54:31.999Z</time></trkpt><trkpt lat="36.66648313106404" lon="15.05949341669966"><ele>13.6</ele><time>2026-04-18T15:54:32.999Z</time></trkpt><trkpt lat="36.66654467274741" lon="15.059530956217959"><ele>14.0</ele><time>2026-04-18T15:54:34.999Z</time></trkpt><trkpt lat="36.666559977848976" lon="15.059647989068612"><ele>14.0</ele><time>2026-04-18T15:54:36.999Z</time></trkpt><trkpt lat="36.66655855356736" lon="15.059788676136048"><ele>14.0</ele><time>2026-04-18T15:54:37.999Z</time></trkpt><trkpt lat="36.666557766983246" lon="15.059933767459006"><ele>14.0</ele><time>2026-04-18T15:54:38.999Z</time></trkpt><trkpt lat="36.6665689014596" lon="15.060087557317026"><ele>14.0</ele><time>2026-04-18T15:54:39.999Z</time></trkpt><trkpt lat="36.666543560485145" lon="15.060205469694699"><ele>14.25</ele><time>2026-04-18T15:54:40.999Z</time></trkpt><trkpt lat="36.6665458971918" lon="15.060387661428301"><ele>14.5</ele><time>2026-04-18T15:54:41.999Z</time></trkpt><trkpt lat="36.66654669787842" lon="15.060581944888881"><ele>14.75</ele><time>2026-04-18T15:54:42.999Z</time></trkpt><trkpt lat="36.66654897699993" lon="15.060761591130857"><ele>15.0</ele><time>2026-04-18T15:54:43.999Z</time></trkpt><trkpt lat="36.6665508665677" lon="15.060930313036064"><ele>15.0</ele><time>2026-04-18T15:54:44.999Z</time></trkpt><trkpt lat="36.66655281686496" lon="15.061104887374821"><ele>15.0</ele><time>2026-04-18T15:54:45.999Z</time></trkpt><trkpt lat="36.66655466709355" lon="15.061230105710564"><ele>15.0</ele><time>2026-04-18T15:54:46.999Z</time></trkpt><trkpt lat="36.66655773770633" lon="15.061335923822307"><ele>15.0</ele><time>2026-04-18T15:54:47.999Z</time></trkpt><trkpt lat="36.66656672584782" lon="15.061418871598885"><ele>15.0</ele><time>2026-04-18T15:54:49.999Z</time></trkpt><trkpt lat="36.66642953961127" lon="15.061410290535369"><ele>15.0</ele><time>2026-04-18T15:54:52.999Z</time></trkpt><trkpt lat="36.66630158921219" lon="15.061430061560683"><ele>15.0</ele><time>2026-04-18T15:54:53.999Z</time></trkpt><trkpt lat="36.666153400241924" lon="15.061423103764676"><ele>15.0</ele><time>2026-04-18T15:54:54.999Z</time></trkpt><trkpt lat="36.66597659412942" lon="15.06143098859666"><ele>14.333333333333332</ele><time>2026-04-18T15:54:55.999Z</time></trkpt><trkpt lat="36.665783866753046" lon="15.061437858772381"><ele>13.666666666666666</ele><time>2026-04-18T15:54:56.999Z</time></trkpt><trkpt lat="36.6655839105548" lon="15.061425686469883"><ele>13.0</ele><time>2026-04-18T15:54:57.999Z</time></trkpt><trkpt lat="36.66536956184454" lon="15.061429589013581"><ele>13.0</ele><time>2026-04-18T15:54:58.999Z</time></trkpt><trkpt lat="36.66514253750839" lon="15.061433722331742"><ele>13.0</ele><time>2026-04-18T15:54:59.999Z</time></trkpt><trkpt lat="36.66492451330896" lon="15.061453484171313"><ele>13.0</ele><time>2026-04-18T15:55:00.999Z</time></trkpt><trkpt lat="36.66471629617264" lon="15.061456309267474"><ele>13.0</ele><time>2026-04-18T15:55:01.999Z</time></trkpt><trkpt lat="36.664534320103975" lon="15.061461762369621"><ele>13.0</ele><time>2026-04-18T15:55:02.999Z</time></trkpt><trkpt lat="36.66437462746043" lon="15.061469030022975"><ele>13.0</ele><time>2026-04-18T15:55:03.999Z</time></trkpt><trkpt lat="36.664249236619646" lon="15.06146250916706"><ele>12.4</ele><time>2026-04-18T15:55:04.999Z</time></trkpt><trkpt lat="36.664119567139686" lon="15.061492151525716"><ele>11.8</ele><time>2026-04-18T15:55:05.999Z</time></trkpt><trkpt lat="36.66402349374637" lon="15.061479572593012"><ele>11.2</ele><time>2026-04-18T15:55:06.999Z</time></trkpt><trkpt lat="36.66397217650214" lon="15.061528120902814"><ele>10.6</ele><time>2026-04-18T15:55:07.999Z</time></trkpt><trkpt lat="36.66395362959733" lon="15.061711797366637"><ele>10.0</ele><time>2026-04-18T15:55:09.999Z</time></trkpt><trkpt lat="36.66396594036747" lon="15.0618521546034"><ele>10.0</ele><time>2026-04-18T15:55:10.999Z</time></trkpt><trkpt lat="36.663955190040895" lon="15.062018100950409"><ele>10.0</ele><time>2026-04-18T15:55:11.999Z</time></trkpt><trkpt lat="36.66395722851484" lon="15.062201895334152"><ele>10.0</ele><time>2026-04-18T15:55:12.999Z</time></trkpt><trkpt lat="36.66397498215819" lon="15.06240417809106"><ele>10.0</ele><time>2026-04-18T15:55:13.999Z</time></trkpt><trkpt lat="36.663971726082494" lon="15.062615634521194"><ele>10.0</ele><time>2026-04-18T15:55:14.999Z</time></trkpt><trkpt lat="36.66397712245216" lon="15.062827178696478"><ele>10.0</ele><time>2026-04-18T15:55:15.999Z</time></trkpt><trkpt lat="36.6639678041564" lon="15.063055420287581"><ele>10.0</ele><time>2026-04-18T15:55:16.999Z</time></trkpt><trkpt lat="36.663982215798626" lon="15.063285887617862"><ele>10.0</ele><time>2026-04-18T15:55:17.999Z</time></trkpt><trkpt lat="36.663973141745274" lon="15.063530559450866"><ele>10.0</ele><time>2026-04-18T15:55:18.999Z</time></trkpt><trkpt lat="36.663974238298024" lon="15.063766835474752"><ele>10.0</ele><time>2026-04-18T15:55:19.999Z</time></trkpt><trkpt lat="36.6639791270151" lon="15.063989372270235"><ele>9.666666666666668</ele><time>2026-04-18T15:55:20.999Z</time></trkpt><trkpt lat="36.66398747640237" lon="15.064228534293816"><ele>9.333333333333334</ele><time>2026-04-18T15:55:21.999Z</time></trkpt><trkpt lat="36.66399612231724" lon="15.064459606736952"><ele>9.0</ele><time>2026-04-18T15:55:22.999Z</time></trkpt><trkpt lat="36.6639880445588" lon="15.064702634405254"><ele>9.0</ele><time>2026-04-18T15:55:23.999Z</time></trkpt><trkpt lat="36.66400879691567" lon="15.064946375813381"><ele>9.0</ele><time>2026-04-18T15:55:24.999Z</time></trkpt><trkpt lat="36.663990248925835" lon="15.065194243123624"><ele>9.0</ele><time>2026-04-18T15:55:25.999Z</time></trkpt><trkpt lat="36.66398826026388" lon="15.065437835440678"><ele>9.0</ele><time>2026-04-18T15:55:26.999Z</time></trkpt><trkpt lat="36.66398634802262" lon="15.065672069140616"><ele>9.0</ele><time>2026-04-18T15:55:27.999Z</time></trkpt><trkpt lat="36.66398625279785" lon="15.065907584729995"><ele>9.0</ele><time>2026-04-18T15:55:28.999Z</time></trkpt><trkpt lat="36.663986859487714" lon="15.06613917405741"><ele>9.333333333333334</ele><time>2026-04-18T15:55:29.999Z</time></trkpt><trkpt lat="36.663988964760875" lon="15.0663712384388"><ele>9.666666666666668</ele><time>2026-04-18T15:55:30.999Z</time></trkpt><trkpt lat="36.66400990826661" lon="15.066601209577614"><ele>10.0</ele><time>2026-04-18T15:55:32Z</time></trkpt><trkpt lat="36.66399781378024" lon="15.066806203157197"><ele>11.0</ele><time>2026-04-18T15:55:33Z</time></trkpt></trkseg></trk></gpx>